Time,TemperatureF,DewpointF,PressureIn,WindDirection,WindDirectionDegrees,WindSpeedMPH,WindSpeedGustMPH,Humidity,HourlyPrecipIn,Conditions,Clouds,dailyrainin,SoftwareType,DateUTC
2013-03-16 00:01:00,28.0,22.6,29.80,NNE,17,6.3,10.4,80,0.00,RA,,0.00,WeatherDisplay:10.37,2013-03-16 05:01:00,
2013-03-16 00:02:00,28.0,22.6,29.80,East,82,5.0,6.9,80,0.00,RA,,0.00,WeatherDisplay:10.37,2013-03-16 05:02:00,
2013-03-16 00:03:00,28.0,22.6,29.80,NE,55,6.6,6.9,80,0.00,RA,,0.00,WeatherDisplay:10.37,2013-03-16 05:03:00,
2013-03-16 00:07:00,28.0,22.6,29.79,ENE,73,6.7,13.8,80,0.00,RA,,0.00,WeatherDisplay:10.37,2013-03-16 05:07:00,
2013-03-16 00:08:00,27.9,22.5,29.79,ESE,114,8.4,13.8,80,0.00,RA,,0.00,WeatherDisplay:10.37,2013-03-16 05:08:00,
2013-03-16 00:12:00,27.9,22.8,29.80,East,83,7.2,11.5,81,0.00,CLR,,0.00,WeatherDisplay:10.37,2013-03-16 05:12:00,
2013-03-16 00:13:00,27.9,22.8,29.80,East,83,4.5,9.2,81,0.00,CLR,,0.00,WeatherDisplay:10.37,2013-03-16 05:13:00,
2013-03-16 00:17:00,28.0,22.9,29.79,NE,49,6.9,12.9,81,0.00,CLR,,0.00,WeatherDisplay:10.37,2013-03-16 05:17:00,
2013-03-16 00:18:00,27.8,22.7,29.79,ENE,66,6.8,12.7,81,0.00,CLR,,0.00,WeatherDisplay:10.37,2013-03-16 05:18:00,
2013-03-16 00:19:00,27.8,22.7,29.79,ENE,72,6.6,12.7,81,0.00,CLR,,0.00,WeatherDisplay:10.37,2013-03-16 05:19:00,
2013-03-16 00:22:00,27.8,22.7,29.79,NE,47,5.3,6.9,81,0.00,CLR,,0.00,WeatherDisplay:10.37,2013-03-16 05:22:00,
2013-03-16 00:23:00,27.8,22.7,29.80,ESE,110,6.1,7.9,81,0.00,CLR,,0.00,WeatherDisplay:10.37,2013-03-16 05:23:00,
2013-03-16 00:24:00,27.8,22.7,29.80,NE,41,5.3,9.2,81,0.00,CLR,,0.00,WeatherDisplay:10.37,2013-03-16 05:24:00,
2013-03-16 00:27:00,27.7,22.6,29.80,NE,56,6.5,10.4,81,0.00,CLR,,0.00,WeatherDisplay:10.37,2013-03-16 05:27:00,
2013-03-16 00:28:00,27.6,22.5,29.80,ENE,58,6.0,9.2,81,0.00,CLR,,0.00,WeatherDisplay:10.37,2013-03-16 05:28:00,
2013-03-16 00:29:00,27.6,22.5,29.80,NE,55,4.7,8.8,81,0.00,CLR,,0.00,WeatherDisplay:10.37,2013-03-16 05:29:00,
2013-03-16 00:32:00,27.6,22.5,29.80,SE,127,6.0,9.2,81,0.00,CLR,,0.00,WeatherDisplay:10.37,2013-03-16 05:32:00,
2013-03-16 00:33:00,27.7,22.6,29.80,East,82,6.3,9.2,81,0.00,CLR,,0.00,WeatherDisplay:10.37,2013-03-16 05:33:00,
2013-03-16 00:34:00,27.7,22.6,29.80,ENE,65,6.2,9.2,81,0.00,CLR,,0.00,WeatherDisplay:10.37,2013-03-16 05:34:00,
2013-03-16 00:38:00,27.7,22.6,29.80,ENE,76,4.4,8.1,81,0.00,CLR,,0.00,WeatherDisplay:10.37,2013-03-16 05:38:00,
2013-03-16 00:39:00,27.6,22.8,29.80,North,360,3.3,5.8,82,0.00,CLR,,0.00,WeatherDisplay:10.37,2013-03-16 05:39:00,
2013-03-16 00:40:00,27.7,22.9,29.80,NNE,27,3.8,5.8,82,0.00,CLR,,0.00,WeatherDisplay:10.37,2013-03-16 05:40:00,
2013-03-16 00:43:00,27.6,22.8,29.80,ESE,117,3.7,5.8,82,0.00,CLR,,0.00,WeatherDisplay:10.37,2013-03-16 05:43:00,
2013-03-16 00:44:00,27.6,22.8,29.80,North,360,2.9,5.8,82,0.00,CLR,,0.00,WeatherDisplay:10.37,2013-03-16 05:44:00,
2013-03-16 00:45:00,27.6,22.8,29.80,ENE,59,3.3,5.8,82,0.00,CLR,,0.00,WeatherDisplay:10.37,2013-03-16 05:45:00,
2013-03-16 00:48:00,27.6,22.8,29.80,ENE,78,4.6,8.1,82,0.00,CLR,,0.00,WeatherDisplay:10.37,2013-03-16 05:48:00,
2013-03-16 00:49:00,27.6,22.8,29.80,ENE,76,5.5,9.2,82,0.00,CLR,,0.00,WeatherDisplay:10.37,2013-03-16 05:49:00,
2013-03-16 00:52:00,27.6,22.8,29.80,NNE,25,6.6,8.1,82,0.00,CLR,,0.00,WeatherDisplay:10.37,2013-03-16 05:52:00,
2013-03-16 00:53:00,27.6,22.8,29.80,WNW,301,4.4,11.5,82,0.00,CLR,,0.00,WeatherDisplay:10.37,2013-03-16 05:53:00,
2013-03-16 00:54:00,27.5,22.7,29.80,ENE,59,3.8,6.9,82,0.00,CLR,,0.00,WeatherDisplay:10.37,2013-03-16 05:54:00,
2013-03-16 00:58:00,27.5,22.7,29.80,NNE,17,4.9,9.2,82,0.00,CLR,,0.00,WeatherDisplay:10.37,2013-03-16 05:58:00,
2013-03-16 00:59:00,27.4,22.6,29.80,ESE,104,3.8,6.9,82,0.00,CLR,,0.00,WeatherDisplay:10.37,2013-03-16 05:59:00,
2013-03-16 01:03:00,27.4,22.6,29.80,NNE,23,6.0,10.4,82,0.00,CLR,,0.00,WeatherDisplay:10.37,2013-03-16 06:03:00,
2013-03-16 01:04:00,27.4,22.6,29.80,NE,56,4.1,6.9,82,0.00,CLR,,0.00,WeatherDisplay:10.37,2013-03-16 06:04:00,
2013-03-16 01:05:00,27.4,22.6,29.80,ENE,71,4.7,6.9,82,0.00,CLR,,0.00,WeatherDisplay:10.37,2013-03-16 06:05:00,
2013-03-16 01:08:00,27.4,22.6,29.80,ESE,119,5.8,9.2,82,0.00,CLR,,0.00,WeatherDisplay:10.37,2013-03-16 06:08:00,
2013-03-16 01:09:00,27.4,22.6,29.81,North,1,5.6,8.1,82,0.00,CLR,,0.00,WeatherDisplay:10.37,2013-03-16 06:09:00,
2013-03-16 01:10:00,27.4,22.6,29.81,ENE,71,5.6,8.1,82,0.00,CLR,,0.00,WeatherDisplay:10.37,2013-03-16 06:10:00,
2013-03-16 01:13:00,27.3,22.5,29.80,ESE,103,6.1,9.2,82,0.00,CLR,,0.00,WeatherDisplay:10.37,2013-03-16 06:13:00,
2013-03-16 01:15:00,27.3,22.5,29.79,NNE,24,4.4,7.3,82,0.00,CLR,,0.00,WeatherDisplay:10.37,2013-03-16 06:15:00,
2013-03-16 01:18:00,27.3,22.5,29.79,NE,54,4.3,6.9,82,0.00,CLR,,0.00,WeatherDisplay:10.37,2013-03-16 06:18:00,
2013-03-16 01:20:00,27.3,22.5,29.79,ENE,64,5.0,6.9,82,0.00,CLR,,0.00,WeatherDisplay:10.37,2013-03-16 06:20:00,
2013-03-16 01:21:00,27.3,22.5,29.79,ENE,72,2.9,6.9,82,0.00,CLR,,0.00,WeatherDisplay:10.37,2013-03-16 06:21:00,
2013-03-16 01:23:00,27.3,22.5,29.79,NNE,25,6.0,8.1,82,0.00,CLR,,0.00,WeatherDisplay:10.37,2013-03-16 06:23:00,
2013-03-16 01:25:00,27.3,22.5,29.79,East,97,7.3,12.7,82,0.00,CLR,,0.00,WeatherDisplay:10.37,2013-03-16 06:25:00,
2013-03-16 01:26:00,27.3,22.5,29.79,NE,51,5.8,12.7,82,0.00,CLR,,0.00,WeatherDisplay:10.37,2013-03-16 06:26:00,
2013-03-16 01:29:00,27.2,22.4,29.80,East,92,6.9,10.4,82,0.00,CLR,,0.00,WeatherDisplay:10.37,2013-03-16 06:29:00,
2013-03-16 01:30:00,27.3,22.5,29.80,SE,144,5.6,7.0,82,0.00,CLR,,0.00,WeatherDisplay:10.37,2013-03-16 06:30:00,
2013-03-16 01:32:00,27.2,22.4,29.80,NNE,17,5.7,10.4,82,0.00,CLR,,0.00,WeatherDisplay:10.37,2013-03-16 06:32:00,
2013-03-16 01:34:00,27.1,22.3,29.79,SSE,158,5.5,9.2,82,0.00,CLR,,0.00,WeatherDisplay:10.37,2013-03-16 06:34:00,
2013-03-16 01:35:00,27.2,22.4,29.79,ENE,61,5.6,8.1,82,0.00,CLR,,0.00,WeatherDisplay:10.37,2013-03-16 06:35:00,
2013-03-16 01:37:00,27.2,22.4,29.79,East,86,4.3,8.6,82,0.00,CLR,,0.00,WeatherDisplay:10.37,2013-03-16 06:37:00,
2013-03-16 01:39:00,27.1,22.3,29.79,ESE,121,4.0,5.5,82,0.00,CLR,,0.00,WeatherDisplay:10.37,2013-03-16 06:39:00,
2013-03-16 01:40:00,27.1,22.3,29.79,ENE,66,5.1,6.2,82,0.00,CLR,,0.00,WeatherDisplay:10.37,2013-03-16 06:40:00,
2013-03-16 01:41:00,27.1,22.3,29.79,ESE,102,5.7,8.1,82,0.00,CLR,,0.00,WeatherDisplay:10.37,2013-03-16 06:41:00,
2013-03-16 01:42:00,27.0,22.2,29.79,NE,34,10.1,18.4,82,0.00,CLR,,0.00,WeatherDisplay:10.37,2013-03-16 06:42:00,
2013-03-16 01:44:00,27.0,22.2,29.79,East,92,6.5,10.4,82,0.00,CLR,,0.00,WeatherDisplay:10.37,2013-03-16 06:44:00,
2013-03-16 01:46:00,27.1,22.3,29.80,ENE,68,6.6,10.4,82,0.00,CLR,,0.00,WeatherDisplay:10.37,2013-03-16 06:46:00,
2013-03-16 01:47:00,27.1,22.3,29.80,North,4,5.5,10.4,82,0.00,CLR,,0.00,WeatherDisplay:10.37,2013-03-16 06:47:00,
2013-03-16 01:49:00,26.9,22.1,29.80,NNE,21,6.6,8.1,82,0.00,CLR,,0.00,WeatherDisplay:10.37,2013-03-16 06:49:00,
2013-03-16 01:51:00,26.9,22.1,29.80,ENE,68,7.3,11.5,82,0.00,CLR,,0.00,WeatherDisplay:10.37,2013-03-16 06:51:00,
2013-03-16 01:52:00,26.9,22.1,29.80,NE,41,6.2,11.0,82,0.00,CLR,,0.00,WeatherDisplay:10.37,2013-03-16 06:52:00,
2013-03-16 01:55:00,26.9,22.1,29.80,NE,49,6.2,9.2,82,0.00,CLR,,0.00,WeatherDisplay:10.37,2013-03-16 06:55:00,
2013-03-16 01:56:00,26.9,22.1,29.79,ENE,64,5.3,8.1,82,0.00,CLR,,0.00,WeatherDisplay:10.37,2013-03-16 06:56:00,
2013-03-16 01:58:00,26.8,22.0,29.80,NE,38,6.0,12.7,82,0.00,CLR,,0.00,WeatherDisplay:10.37,2013-03-16 06:58:00,
2013-03-16 02:00:00,26.8,22.0,29.80,ENE,59,6.4,9.2,82,0.00,CLR,,0.00,WeatherDisplay:10.37,2013-03-16 07:00:00,
2013-03-16 02:01:00,26.8,22.0,29.80,ENE,71,3.4,6.7,82,0.00,CLR,,0.00,WeatherDisplay:10.37,2013-03-16 07:01:00,
2013-03-16 02:03:00,26.9,22.1,29.80,NE,47,5.9,9.2,82,0.00,CLR,,0.00,WeatherDisplay:10.37,2013-03-16 07:03:00,
2013-03-16 02:04:00,26.9,22.1,29.80,SE,137,4.4,9.2,82,0.00,CLR,,0.00,WeatherDisplay:10.37,2013-03-16 07:04:00,
2013-03-16 02:05:00,26.8,22.0,29.80,ESE,123,6.0,8.1,82,0.00,CLR,,0.00,WeatherDisplay:10.37,2013-03-16 07:05:00,
2013-03-16 02:06:00,26.8,22.0,29.80,NNE,32,5.2,9.2,82,0.00,CLR,,0.00,WeatherDisplay:10.37,2013-03-16 07:06:00,
2013-03-16 02:08:00,26.8,22.0,29.79,ENE,65,4.2,8.1,82,0.00,CLR,,0.00,WeatherDisplay:10.37,2013-03-16 07:08:00,
2013-03-16 02:09:00,26.8,22.0,29.79,NE,40,4.6,6.9,82,0.00,CLR,,0.00,WeatherDisplay:10.37,2013-03-16 07:09:00,
2013-03-16 02:10:00,26.8,22.0,29.79,NE,51,4.1,6.9,82,0.00,CLR,,0.00,WeatherDisplay:10.37,2013-03-16 07:10:00,
2013-03-16 02:11:00,26.9,22.1,29.79,East,86,8.2,10.4,82,0.00,CLR,,0.00,WeatherDisplay:10.37,2013-03-16 07:11:00,
2013-03-16 02:13:00,26.8,22.0,29.78,ESE,103,5.2,8.1,82,0.00,CLR,,0.00,WeatherDisplay:10.37,2013-03-16 07:13:00,
2013-03-16 02:14:00,26.8,22.0,29.78,NE,51,5.7,9.2,82,0.00,CLR,,0.00,WeatherDisplay:10.37,2013-03-16 07:14:00,
2013-03-16 02:15:00,26.8,22.0,29.78,ESE,123,4.4,5.8,82,0.00,CLR,,0.00,WeatherDisplay:10.37,2013-03-16 07:15:00,
2013-03-16 02:16:00,26.8,22.0,29.78,East,82,7.5,10.5,82,0.00,CLR,,0.00,WeatherDisplay:10.37,2013-03-16 07:16:00,
2013-03-16 02:18:00,26.8,22.0,29.78,ENE,72,9.0,12.7,82,0.00,CLR,,0.00,WeatherDisplay:10.37,2013-03-16 07:18:00,
2013-03-16 02:19:00,26.8,22.0,29.78,East,79,5.3,12.7,82,0.00,CLR,,0.00,WeatherDisplay:10.37,2013-03-16 07:19:00,
2013-03-16 02:20:00,26.7,21.9,29.78,East,100,3.5,9.2,82,0.00,CLR,,0.00,WeatherDisplay:10.37,2013-03-16 07:20:00,
2013-03-16 02:21:00,26.7,21.9,29.78,NE,38,2.5,4.6,82,0.00,CLR,,0.00,WeatherDisplay:10.37,2013-03-16 07:21:00,
2013-03-16 02:23:00,26.8,22.0,29.78,East,86,5.0,8.1,82,0.00,CLR,,0.00,WeatherDisplay:10.37,2013-03-16 07:23:00,
2013-03-16 02:24:00,26.8,22.0,29.78,NE,35,6.1,8.1,82,0.00,CLR,,0.00,WeatherDisplay:10.37,2013-03-16 07:24:00,
2013-03-16 02:26:00,26.8,22.0,29.78,East,92,4.7,10.4,82,0.00,CLR,,0.00,WeatherDisplay:10.37,2013-03-16 07:26:00,
2013-03-16 02:27:00,26.8,22.0,29.78,NE,40,5.8,6.7,82,0.00,CLR,,0.00,WeatherDisplay:10.37,2013-03-16 07:27:00,
2013-03-16 02:28:00,26.8,22.0,29.78,ENE,68,5.9,8.1,82,0.00,CLR,,0.00,WeatherDisplay:10.37,2013-03-16 07:28:00,
2013-03-16 02:29:00,26.8,22.0,29.78,NE,45,5.1,8.1,82,0.00,CLR,,0.00,WeatherDisplay:10.37,2013-03-16 07:29:00,
2013-03-16 02:31:00,26.8,22.0,29.78,ENE,65,5.9,6.9,82,0.00,CLR,,0.00,WeatherDisplay:10.37,2013-03-16 07:31:00,
2013-03-16 02:32:00,26.8,22.0,29.78,NE,37,4.2,6.9,82,0.00,CLR,,0.00,WeatherDisplay:10.37,2013-03-16 07:32:00,
2013-03-16 02:34:00,26.7,21.9,29.79,NNE,31,3.3,5.8,82,0.00,CLR,,0.00,WeatherDisplay:10.37,2013-03-16 07:34:00,
2013-03-16 02:36:00,26.8,22.0,29.79,NE,51,5.6,13.8,82,0.00,CLR,,0.00,WeatherDisplay:10.37,2013-03-16 07:36:00,
2013-03-16 02:37:00,26.8,22.0,29.79,NNE,31,7.0,13.8,82,0.00,CLR,,0.00,WeatherDisplay:10.37,2013-03-16 07:37:00,
2013-03-16 02:39:00,26.8,22.0,29.79,ESE,107,3.3,8.1,82,0.00,CLR,,0.00,WeatherDisplay:10.37,2013-03-16 07:39:00,
2013-03-16 02:41:00,26.7,21.9,29.79,NE,35,6.9,12.7,82,0.00,CLR,,0.00,WeatherDisplay:10.37,2013-03-16 07:41:00,
2013-03-16 02:42:00,26.7,21.9,29.79,NE,51,6.2,11.5,82,0.00,CLR,,0.00,WeatherDisplay:10.37,2013-03-16 07:42:00,
2013-03-16 02:44:00,26.7,21.9,29.79,ENE,61,4.1,6.9,82,0.00,CLR,,0.00,WeatherDisplay:10.37,2013-03-16 07:44:00,
2013-03-16 02:46:00,26.6,21.8,29.79,ENE,62,6.5,11.5,82,0.00,CLR,,0.00,WeatherDisplay:10.37,2013-03-16 07:46:00,
2013-03-16 02:47:00,26.6,21.8,29.79,NE,49,5.9,9.2,82,0.00,CLR,,0.00,WeatherDisplay:10.37,2013-03-16 07:47:00,
2013-03-16 02:49:00,26.5,21.7,29.80,North,11,4.5,9.2,82,0.00,CLR,,0.00,WeatherDisplay:10.37,2013-03-16 07:49:00,
2013-03-16 02:52:00,26.6,21.8,29.79,NE,47,5.0,6.9,82,0.00,CLR,,0.00,WeatherDisplay:10.37,2013-03-16 07:52:00,
2013-03-16 02:54:00,26.5,21.7,29.79,ENE,76,5.4,9.2,82,0.00,CLR,,0.00,WeatherDisplay:10.37,2013-03-16 07:54:00,
2013-03-16 02:56:00,26.5,21.7,29.80,NE,45,5.1,8.1,82,0.00,CLR,,0.00,WeatherDisplay:10.37,2013-03-16 07:56:00,
2013-03-16 02:57:00,26.5,21.7,29.80,NE,41,6.2,9.2,82,0.00,CLR,,0.00,WeatherDisplay:10.37,2013-03-16 07:57:00,
2013-03-16 02:59:00,26.4,21.7,29.80,NE,40,5.5,9.2,82,0.00,CLR,,0.00,WeatherDisplay:10.37,2013-03-16 07:59:00,
2013-03-16 03:01:00,26.3,21.8,29.79,NE,51,8.0,11.5,83,0.00,CLR,,0.00,WeatherDisplay:10.37,2013-03-16 08:01:00,
2013-03-16 03:02:00,26.3,21.8,29.80,NE,38,4.9,11.5,83,0.00,CLR,,0.00,WeatherDisplay:10.37,2013-03-16 08:02:00,
2013-03-16 03:04:00,26.4,21.9,29.80,ENE,64,6.5,10.4,83,0.00,CLR,,0.00,WeatherDisplay:10.37,2013-03-16 08:04:00,
2013-03-16 03:06:00,26.3,21.8,29.80,East,85,4.4,9.2,83,0.00,CLR,,0.00,WeatherDisplay:10.37,2013-03-16 08:06:00,
2013-03-16 03:07:00,26.3,21.8,29.80,ENE,59,4.3,8.1,83,0.00,CLR,,0.00,WeatherDisplay:10.37,2013-03-16 08:07:00,
2013-03-16 03:09:00,26.3,21.8,29.80,ENE,62,3.4,8.8,83,0.00,CLR,,0.00,WeatherDisplay:10.37,2013-03-16 08:09:00,
2013-03-16 03:11:00,26.3,21.8,29.80,NE,34,6.1,9.2,83,0.00,CLR,,0.00,WeatherDisplay:10.37,2013-03-16 08:11:00,
2013-03-16 03:13:00,26.3,21.8,29.80,NE,54,4.3,6.9,83,0.00,CLR,,0.00,WeatherDisplay:10.37,2013-03-16 08:13:00,
2013-03-16 03:15:00,26.2,21.7,29.80,ENE,71,0.2,3.5,83,0.00,CLR,,0.00,WeatherDisplay:10.37,2013-03-16 08:15:00,
2013-03-16 03:16:00,26.3,21.8,29.80,NE,47,6.6,8.1,83,0.00,CLR,,0.00,WeatherDisplay:10.37,2013-03-16 08:16:00,
2013-03-16 03:18:00,26.3,21.8,29.80,ENE,64,3.9,5.8,83,0.00,CLR,,0.00,WeatherDisplay:10.37,2013-03-16 08:18:00,
2013-03-16 03:20:00,26.3,21.8,29.80,East,79,4.5,8.1,83,0.00,CLR,,0.00,WeatherDisplay:10.37,2013-03-16 08:20:00,
2013-03-16 03:22:00,26.3,21.8,29.80,SE,127,4.2,5.8,83,0.00,CLR,,0.00,WeatherDisplay:10.37,2013-03-16 08:22:00,
2013-03-16 03:23:00,26.3,21.8,29.79,ENE,72,3.3,5.8,83,0.00,CLR,,0.00,WeatherDisplay:10.37,2013-03-16 08:23:00,
2013-03-16 03:25:00,26.2,21.7,29.79,ENE,62,4.7,6.5,83,0.00,CLR,,0.00,WeatherDisplay:10.37,2013-03-16 08:25:00,
2013-03-16 03:27:00,26.2,21.7,29.79,NE,47,5.6,8.1,83,0.00,CLR,,0.00,WeatherDisplay:10.37,2013-03-16 08:27:00,
2013-03-16 03:28:00,26.2,21.7,29.79,NE,52,4.5,8.6,83,0.00,CLR,,0.00,WeatherDisplay:10.37,2013-03-16 08:28:00,
2013-03-16 03:30:00,26.2,21.7,29.80,NE,54,3.2,5.8,83,0.00,CLR,,0.00,WeatherDisplay:10.37,2013-03-16 08:30:00,
2013-03-16 03:32:00,26.2,21.7,29.80,NNE,27,2.9,4.6,83,0.00,CLR,,0.00,WeatherDisplay:10.37,2013-03-16 08:32:00,
2013-03-16 03:33:00,26.3,21.8,29.79,NE,45,4.6,5.8,83,0.00,CLR,,0.00,WeatherDisplay:10.37,2013-03-16 08:33:00,
2013-03-16 03:34:00,26.3,21.8,29.79,NE,45,4.6,6.5,83,0.00,CLR,,0.00,WeatherDisplay:10.37,2013-03-16 08:34:00,
2013-03-16 03:36:00,26.2,21.7,29.79,East,92,4.8,9.2,83,0.00,CLR,,0.00,WeatherDisplay:10.37,2013-03-16 08:36:00,
2013-03-16 03:38:00,26.2,21.7,29.79,East,90,3.8,5.3,83,0.00,CLR,,0.00,WeatherDisplay:10.37,2013-03-16 08:38:00,
2013-03-16 03:39:00,26.3,21.8,29.79,NNE,13,6.4,7.3,83,0.00,CLR,,0.00,WeatherDisplay:10.37,2013-03-16 08:39:00,
2013-03-16 03:41:00,26.1,21.4,29.79,NE,48,6.8,11.5,82,0.00,CLR,,0.00,WeatherDisplay:10.37,2013-03-16 08:41:00,
2013-03-16 03:43:00,26.1,21.4,29.79,NNE,16,4.8,6.9,82,0.00,CLR,,0.00,WeatherDisplay:10.37,2013-03-16 08:43:00,
2013-03-16 03:44:00,26.1,21.6,29.79,North,350,3.2,6.9,83,0.00,CLR,,0.00,WeatherDisplay:10.37,2013-03-16 08:44:00,
2013-03-16 03:46:00,26.1,21.6,29.79,NE,42,5.0,9.6,83,0.00,CLR,,0.00,WeatherDisplay:10.37,2013-03-16 08:46:00,
2013-03-16 03:48:00,26.0,21.5,29.79,ENE,64,4.8,9.2,83,0.00,CLR,,0.00,WeatherDisplay:10.37,2013-03-16 08:48:00,
2013-03-16 03:49:00,26.0,21.5,29.79,NE,54,4.8,8.1,83,0.00,CLR,,0.00,WeatherDisplay:10.37,2013-03-16 08:49:00,
2013-03-16 03:51:00,25.8,21.3,29.79,NE,45,5.1,8.1,83,0.00,CLR,,0.00,WeatherDisplay:10.37,2013-03-16 08:51:00,
2013-03-16 03:53:00,25.8,21.3,29.79,NE,41,3.7,5.8,83,0.00,CLR,,0.00,WeatherDisplay:10.37,2013-03-16 08:53:00,
2013-03-16 03:54:00,25.8,21.3,29.79,NE,40,4.0,5.8,83,0.00,CLR,,0.00,WeatherDisplay:10.37,2013-03-16 08:54:00,
2013-03-16 03:55:00,25.8,21.3,29.79,East,79,4.3,6.3,83,0.00,CLR,,0.00,WeatherDisplay:10.37,2013-03-16 08:55:00,
2013-03-16 03:56:00,25.8,21.3,29.79,NNE,31,7.2,15.3,83,0.00,CLR,,0.00,WeatherDisplay:10.37,2013-03-16 08:56:00,
2013-03-16 03:58:00,25.7,21.3,29.79,North,8,5.6,13.1,83,0.00,CLR,,0.00,WeatherDisplay:10.37,2013-03-16 08:58:00,
2013-03-16 03:59:00,25.7,21.3,29.79,NNE,31,6.3,13.8,83,0.00,CLR,,0.00,WeatherDisplay:10.37,2013-03-16 08:59:00,
2013-03-16 04:00:00,25.6,21.2,29.79,NE,48,6.2,13.8,83,0.00,CLR,,0.00,WeatherDisplay:10.37,2013-03-16 09:00:00,
2013-03-16 04:02:00,25.6,21.2,29.79,NE,35,7.2,10.4,83,0.00,CLR,,0.00,WeatherDisplay:10.37,2013-03-16 09:02:00,
2013-03-16 04:03:00,25.6,21.2,29.78,NE,41,4.0,8.1,83,0.00,CLR,,0.00,WeatherDisplay:10.37,2013-03-16 09:03:00,
2013-03-16 04:04:00,25.5,21.1,29.78,NE,51,4.4,8.8,83,0.00,CLR,,0.00,WeatherDisplay:10.37,2013-03-16 09:04:00,
2013-03-16 04:05:00,25.5,21.1,29.78,ENE,65,5.5,9.2,83,0.00,CLR,,0.00,WeatherDisplay:10.37,2013-03-16 09:05:00,
2013-03-16 04:07:00,25.5,21.1,29.78,NNE,17,4.1,6.9,83,0.00,CLR,,0.00,WeatherDisplay:10.37,2013-03-16 09:07:00,
2013-03-16 04:08:00,25.4,21.0,29.78,ESE,102,7.4,10.4,83,0.00,CLR,,0.00,WeatherDisplay:10.37,2013-03-16 09:08:00,
2013-03-16 04:10:00,25.4,21.0,29.78,NW,308,5.7,9.2,83,0.00,CLR,,0.00,WeatherDisplay:10.37,2013-03-16 09:10:00,
2013-03-16 04:12:00,25.3,20.9,29.79,ENE,72,8.0,12.9,83,0.00,CLR,,0.00,WeatherDisplay:10.37,2013-03-16 09:12:00,
2013-03-16 04:13:00,25.3,20.9,29.79,NE,55,6.4,12.7,83,0.00,CLR,,0.00,WeatherDisplay:10.37,2013-03-16 09:13:00,
2013-03-16 04:15:00,25.3,20.9,29.79,NE,49,5.9,9.2,83,0.00,CLR,,0.00,WeatherDisplay:10.37,2013-03-16 09:15:00,
2013-03-16 04:17:00,25.2,20.8,29.79,NNE,30,5.9,10.4,83,0.00,CLR,,0.00,WeatherDisplay:10.37,2013-03-16 09:17:00,
2013-03-16 04:18:00,25.2,20.8,29.79,ENE,68,4.1,8.1,83,0.00,CLR,,0.00,WeatherDisplay:10.37,2013-03-16 09:18:00,
2013-03-16 04:20:00,25.1,20.7,29.79,NNE,17,7.5,10.4,83,0.00,CLR,,0.00,WeatherDisplay:10.37,2013-03-16 09:20:00,
2013-03-16 04:22:00,25.1,20.7,29.80,ENE,62,6.0,8.1,83,0.00,CLR,,0.00,WeatherDisplay:10.37,2013-03-16 09:22:00,
2013-03-16 04:24:00,25.1,20.7,29.80,NNE,25,5.2,9.2,83,0.00,CLR,,0.00,WeatherDisplay:10.37,2013-03-16 09:24:00,
2013-03-16 04:25:00,25.1,20.9,29.80,ENE,78,5.8,10.4,84,0.00,CLR,,0.00,WeatherDisplay:10.37,2013-03-16 09:25:00,
2013-03-16 04:28:00,25.0,20.8,29.80,NNE,13,7.2,9.3,84,0.00,CLR,,0.00,WeatherDisplay:10.37,2013-03-16 09:28:00,
2013-03-16 04:29:00,24.9,20.8,29.80,ENE,58,8.7,12.7,84,0.00,CLR,,0.00,WeatherDisplay:10.37,2013-03-16 09:29:00,
2013-03-16 04:30:00,25.0,20.8,29.80,NNE,30,7.4,12.7,84,0.00,CLR,,0.00,WeatherDisplay:10.37,2013-03-16 09:30:00,
2013-03-16 04:33:00,24.8,20.7,29.80,ESE,106,3.3,10.4,84,0.00,CLR,,0.00,WeatherDisplay:10.37,2013-03-16 09:33:00,
2013-03-16 04:34:00,24.9,20.8,29.80,NNE,27,4.3,5.8,84,0.00,CLR,,0.00,WeatherDisplay:10.37,2013-03-16 09:34:00,
2013-03-16 04:35:00,25.0,20.8,29.80,NE,45,5.9,7.1,84,0.00,CLR,,0.00,WeatherDisplay:10.37,2013-03-16 09:35:00,
2013-03-16 04:36:00,24.9,20.8,29.80,ESE,103,6.7,9.2,84,0.00,CLR,,0.00,WeatherDisplay:10.37,2013-03-16 09:36:00,
2013-03-16 04:38:00,24.9,20.8,29.81,ENE,71,8.5,12.7,84,0.00,CLR,,0.00,WeatherDisplay:10.37,2013-03-16 09:38:00,
2013-03-16 04:39:00,24.8,20.7,29.81,NNE,28,7.9,10.4,84,0.00,CLR,,0.00,WeatherDisplay:10.37,2013-03-16 09:39:00,
2013-03-16 04:40:00,24.8,20.7,29.80,NNE,32,7.6,10.4,84,0.00,CLR,,0.00,WeatherDisplay:10.37,2013-03-16 09:40:00,
2013-03-16 04:42:00,24.8,20.4,29.80,East,95,5.9,11.5,83,0.00,CLR,,0.00,WeatherDisplay:10.37,2013-03-16 09:42:00,
2013-03-16 04:43:00,24.8,20.4,29.80,NE,35,6.2,8.1,83,0.00,CLR,,0.00,WeatherDisplay:10.37,2013-03-16 09:43:00,
2013-03-16 04:44:00,24.8,20.4,29.81,East,79,7.7,12.7,83,0.00,CLR,,0.00,WeatherDisplay:10.37,2013-03-16 09:44:00,
2013-03-16 04:45:00,24.8,20.4,29.81,ENE,65,6.3,11.5,83,0.00,CLR,,0.00,WeatherDisplay:10.37,2013-03-16 09:45:00,
2013-03-16 04:47:00,24.8,20.4,29.81,ENE,58,6.0,10.4,83,0.00,CLR,,0.00,WeatherDisplay:10.37,2013-03-16 09:47:00,
2013-03-16 04:48:00,24.8,20.4,29.81,NNE,24,6.2,9.2,83,0.00,CLR,,0.00,WeatherDisplay:10.37,2013-03-16 09:48:00,
2013-03-16 04:49:00,24.8,20.4,29.81,NE,56,5.5,7.5,83,0.00,CLR,,0.00,WeatherDisplay:10.37,2013-03-16 09:49:00,
2013-03-16 04:50:00,24.7,20.3,29.81,NE,45,5.8,9.3,83,0.00,CLR,,0.00,WeatherDisplay:10.37,2013-03-16 09:50:00,
2013-03-16 04:52:00,24.8,20.4,29.81,North,360,4.7,5.8,83,0.00,CLR,,0.00,WeatherDisplay:10.37,2013-03-16 09:52:00,
2013-03-16 04:53:00,24.7,20.3,29.81,NE,55,3.0,8.1,83,0.00,CLR,,0.00,WeatherDisplay:10.37,2013-03-16 09:53:00,
2013-03-16 04:54:00,24.7,20.3,29.81,North,4,4.6,5.1,83,0.00,CLR,,0.00,WeatherDisplay:10.37,2013-03-16 09:54:00,
2013-03-16 04:57:00,24.7,20.3,29.81,NE,34,3.1,4.8,83,0.00,CLR,,0.00,WeatherDisplay:10.37,2013-03-16 09:57:00,
2013-03-16 04:58:00,24.8,20.4,29.81,NE,54,5.8,9.9,83,0.00,CLR,,0.00,WeatherDisplay:10.37,2013-03-16 09:58:00,
2013-03-16 05:00:00,24.7,20.3,29.81,NE,51,6.7,10.4,83,0.00,CLR,,0.00,WeatherDisplay:10.37,2013-03-16 10:00:00,
2013-03-16 05:02:00,24.7,20.3,29.81,NE,45,5.3,10.4,83,0.00,CLR,,0.00,WeatherDisplay:10.37,2013-03-16 10:02:00,
2013-03-16 05:03:00,24.7,20.3,29.81,NE,35,5.1,6.9,83,0.00,CLR,,0.00,WeatherDisplay:10.37,2013-03-16 10:03:00,
2013-03-16 05:04:00,24.7,20.3,29.81,NNE,23,6.9,9.7,83,0.00,CLR,,0.00,WeatherDisplay:10.37,2013-03-16 10:04:00,
2013-03-16 05:05:00,24.6,20.2,29.81,NNE,21,7.5,11.5,83,0.00,CLR,,0.00,WeatherDisplay:10.37,2013-03-16 10:05:00,
2013-03-16 05:07:00,24.6,20.2,29.82,North,360,5.4,9.2,83,0.00,CLR,,0.00,WeatherDisplay:10.37,2013-03-16 10:07:00,
2013-03-16 05:08:00,24.6,20.2,29.82,North,7,5.6,9.2,83,0.00,CLR,,0.00,WeatherDisplay:10.37,2013-03-16 10:08:00,
2013-03-16 05:09:00,24.5,20.1,29.82,North,8,7.7,12.7,83,0.00,CLR,,0.00,WeatherDisplay:10.37,2013-03-16 10:09:00,
2013-03-16 05:10:00,24.5,20.1,29.82,NNE,24,6.7,9.2,83,0.00,CLR,,0.00,WeatherDisplay:10.37,2013-03-16 10:10:00,
2013-03-16 05:13:00,24.4,20.0,29.82,NE,37,5.4,8.8,83,0.00,CLR,,0.00,WeatherDisplay:10.37,2013-03-16 10:13:00,
2013-03-16 05:14:00,24.1,19.7,29.82,NNE,18,4.6,9.2,83,0.00,CLR,,0.00,WeatherDisplay:10.37,2013-03-16 10:14:00,
2013-03-16 05:15:00,24.2,19.8,29.82,North,357,7.2,10.4,83,0.00,CLR,,0.00,WeatherDisplay:10.37,2013-03-16 10:15:00,
2013-03-16 05:18:00,24.0,19.6,29.83,NE,35,7.4,13.8,83,0.00,CLR,,0.00,WeatherDisplay:10.37,2013-03-16 10:18:00,
2013-03-16 05:20:00,23.9,19.5,29.83,NNE,23,5.7,10.4,83,0.00,CLR,,0.00,WeatherDisplay:10.37,2013-03-16 10:20:00,
2013-03-16 05:21:00,23.8,19.4,29.83,East,86,4.9,7.6,83,0.00,CLR,,0.00,WeatherDisplay:10.37,2013-03-16 10:21:00,
2013-03-16 05:23:00,23.7,19.3,29.83,NNE,14,4.8,10.0,83,0.00,CLR,,0.00,WeatherDisplay:10.37,2013-03-16 10:23:00,
2013-03-16 05:25:00,23.6,19.2,29.83,North,6,9.5,13.8,83,0.00,CLR,,0.00,WeatherDisplay:10.37,2013-03-16 10:25:00,
2013-03-16 05:26:00,23.5,19.1,29.83,NE,37,7.6,15.0,83,0.00,CLR,,0.00,WeatherDisplay:10.37,2013-03-16 10:26:00,
2013-03-16 05:28:00,23.3,18.9,29.83,ENE,75,5.6,11.5,83,0.00,CLR,,0.00,WeatherDisplay:10.37,2013-03-16 10:28:00,
2013-03-16 05:30:00,23.2,18.8,29.83,NNE,25,8.9,12.7,83,0.00,CLR,,0.00,WeatherDisplay:10.37,2013-03-16 10:30:00,
2013-03-16 05:32:00,23.2,18.8,29.83,NNE,14,4.6,6.9,83,0.00,CLR,,0.00,WeatherDisplay:10.37,2013-03-16 10:32:00,
2013-03-16 05:33:00,23.1,18.7,29.83,NE,52,6.7,12.2,83,0.00,CLR,,0.00,WeatherDisplay:10.37,2013-03-16 10:33:00,
2013-03-16 05:35:00,23.0,18.6,29.83,NE,41,6.4,11.5,83,0.00,CLR,,0.00,WeatherDisplay:10.37,2013-03-16 10:35:00,
2013-03-16 05:37:00,22.9,18.5,29.83,ENE,66,6.6,12.7,83,0.00,CLR,,0.00,WeatherDisplay:10.37,2013-03-16 10:37:00,
2013-03-16 05:38:00,22.8,18.4,29.83,NE,44,6.8,12.7,83,0.00,CLR,,0.00,WeatherDisplay:10.37,2013-03-16 10:38:00,
2013-03-16 05:40:00,22.7,18.3,29.83,North,1,5.2,9.2,83,0.00,CLR,,0.00,WeatherDisplay:10.37,2013-03-16 10:40:00,
2013-03-16 05:42:00,22.6,18.2,29.83,North,360,5.6,9.2,83,0.00,CLR,,0.00,WeatherDisplay:10.37,2013-03-16 10:42:00,
2013-03-16 05:43:00,22.6,18.2,29.83,NE,37,5.5,8.1,83,0.00,CLR,,0.00,WeatherDisplay:10.37,2013-03-16 10:43:00,
2013-03-16 05:44:00,22.5,18.1,29.83,ENE,75,5.8,8.3,83,0.00,CLR,,0.00,WeatherDisplay:10.37,2013-03-16 10:44:00,
2013-03-16 05:45:00,22.5,18.1,29.84,NE,38,7.4,11.5,83,0.00,CLR,,0.00,WeatherDisplay:10.37,2013-03-16 10:45:00,
2013-03-16 05:47:00,22.4,18.0,29.84,NE,37,7.5,11.5,83,0.00,CLR,,0.00,WeatherDisplay:10.37,2013-03-16 10:47:00,
2013-03-16 05:49:00,22.2,17.8,29.84,NNE,27,5.4,10.4,83,0.00,CLR,,0.00,WeatherDisplay:10.37,2013-03-16 10:49:00,
2013-03-16 05:50:00,22.2,17.8,29.84,NE,41,8.8,17.3,83,0.00,CLR,,0.00,WeatherDisplay:10.37,2013-03-16 10:50:00,
2013-03-16 05:53:00,22.1,17.7,29.84,North,360,8.6,15.0,83,0.00,CLR,,0.00,WeatherDisplay:10.37,2013-03-16 10:53:00,
2013-03-16 05:54:00,22.0,17.6,29.83,North,6,8.6,12.7,83,0.00,CLR,,0.00,WeatherDisplay:10.37,2013-03-16 10:54:00,
2013-03-16 05:55:00,22.1,17.7,29.83,NNE,31,5.7,15.0,83,0.00,CLR,,0.00,WeatherDisplay:10.37,2013-03-16 10:55:00,
2013-03-16 05:58:00,21.9,17.5,29.83,ESE,114,5.8,9.2,83,0.00,CLR,,0.00,WeatherDisplay:10.37,2013-03-16 10:58:00,
2013-03-16 05:59:00,21.8,17.7,29.83,North,7,7.2,10.4,84,0.00,CLR,,0.00,WeatherDisplay:10.37,2013-03-16 10:59:00,
2013-03-16 06:01:00,21.7,17.6,29.84,NNE,20,5.5,8.1,84,0.00,CLR,,0.00,WeatherDisplay:10.37,2013-03-16 11:01:00,
2013-03-16 06:03:00,21.7,17.6,29.84,North,354,6.1,8.0,84,0.00,CLR,,0.00,WeatherDisplay:10.37,2013-03-16 11:03:00,
2013-03-16 06:04:00,21.7,17.6,29.84,NE,40,8.1,15.0,84,0.00,CLR,,0.00,WeatherDisplay:10.37,2013-03-16 11:04:00,
2013-03-16 06:06:00,21.6,17.5,29.84,NE,34,6.6,9.4,84,0.00,CLR,,0.00,WeatherDisplay:10.37,2013-03-16 11:06:00,
2013-03-16 06:08:00,21.5,17.4,29.85,NNE,17,6.1,10.7,84,0.00,CLR,,0.00,WeatherDisplay:10.37,2013-03-16 11:08:00,
2013-03-16 06:09:00,21.5,17.4,29.85,NE,41,8.3,11.5,84,0.00,CLR,,0.00,WeatherDisplay:10.37,2013-03-16 11:09:00,
2013-03-16 06:10:00,21.4,17.3,29.85,NNE,30,7.7,12.7,84,0.00,CLR,,0.00,WeatherDisplay:10.37,2013-03-16 11:10:00,
2013-03-16 06:11:00,21.5,17.4,29.85,NE,47,7.7,12.4,84,0.00,CLR,,0.00,WeatherDisplay:10.37,2013-03-16 11:11:00,
2013-03-16 06:13:00,21.4,17.3,29.85,NNE,28,8.3,12.7,84,0.00,CLR,,0.00,WeatherDisplay:10.37,2013-03-16 11:13:00,
2013-03-16 06:15:00,21.4,17.3,29.85,ENE,59,8.9,13.8,84,0.00,CLR,,0.00,WeatherDisplay:10.37,2013-03-16 11:15:00,
2013-03-16 06:17:00,21.2,17.1,29.85,NNW,347,6.1,10.4,84,0.00,CLR,,0.00,WeatherDisplay:10.37,2013-03-16 11:17:00,
2013-03-16 06:18:00,21.1,17.0,29.85,NNE,30,7.3,9.2,84,0.00,CLR,,0.00,WeatherDisplay:10.37,2013-03-16 11:18:00,
2013-03-16 06:20:00,21.1,17.0,29.85,North,360,5.0,9.2,84,0.00,CLR,,0.00,WeatherDisplay:10.37,2013-03-16 11:20:00,
2013-03-16 06:22:00,21.1,17.0,29.85,North,10,7.4,11.5,84,0.00,CLR,,0.00,WeatherDisplay:10.37,2013-03-16 11:22:00,
2013-03-16 06:23:00,21.0,16.9,29.85,NE,52,5.6,8.1,84,0.00,CLR,,0.00,WeatherDisplay:10.37,2013-03-16 11:23:00,
2013-03-16 06:25:00,20.9,16.8,29.85,NNE,27,7.9,12.7,84,0.00,CLR,,0.00,WeatherDisplay:10.37,2013-03-16 11:25:00,
2013-03-16 06:28:00,20.9,16.8,29.86,North,8,6.3,10.4,84,0.00,CLR,,0.00,WeatherDisplay:10.37,2013-03-16 11:28:00,
2013-03-16 06:30:00,20.9,16.8,29.86,North,11,6.6,9.2,84,0.00,CLR,,0.00,WeatherDisplay:10.37,2013-03-16 11:30:00,
2013-03-16 06:33:00,20.8,16.7,29.86,NE,35,7.4,11.8,84,0.00,CLR,,0.00,WeatherDisplay:10.37,2013-03-16 11:33:00,
2013-03-16 06:34:00,20.8,16.7,29.86,NNE,27,8.7,13.8,84,0.00,CLR,,0.00,WeatherDisplay:10.37,2013-03-16 11:34:00,
2013-03-16 06:35:00,20.8,16.7,29.86,NE,49,10.3,16.1,84,0.00,CLR,,0.00,WeatherDisplay:10.37,2013-03-16 11:35:00,
2013-03-16 06:36:00,20.8,16.7,29.86,NNE,32,5.8,12.7,84,0.00,CLR,,0.00,WeatherDisplay:10.37,2013-03-16 11:36:00,
2013-03-16 06:38:00,20.8,16.7,29.86,NE,41,4.4,6.9,84,0.00,CLR,,0.00,WeatherDisplay:10.37,2013-03-16 11:38:00,
2013-03-16 06:39:00,20.8,16.7,29.86,East,93,4.7,6.9,84,0.00,CLR,,0.00,WeatherDisplay:10.37,2013-03-16 11:39:00,
2013-03-16 06:40:00,20.8,16.7,29.86,NNE,28,8.1,9.2,84,0.00,CLR,,0.00,WeatherDisplay:10.37,2013-03-16 11:40:00,
2013-03-16 06:42:00,20.7,16.6,29.86,NNE,32,8.9,13.8,84,0.00,CLR,,0.00,WeatherDisplay:10.37,2013-03-16 11:42:00,
2013-03-16 06:43:00,20.7,16.6,29.86,NE,41,6.3,9.2,84,0.00,CLR,,0.00,WeatherDisplay:10.37,2013-03-16 11:43:00,
2013-03-16 06:44:00,20.7,16.6,29.86,NE,41,5.7,9.2,84,0.00,CLR,,0.00,WeatherDisplay:10.37,2013-03-16 11:44:00,
2013-03-16 06:45:00,20.8,16.7,29.86,North,356,8.9,12.7,84,0.00,CLR,,0.00,WeatherDisplay:10.37,2013-03-16 11:45:00,
2013-03-16 06:47:00,20.7,16.6,29.86,NNE,32,8.0,13.1,84,0.00,CLR,,0.00,WeatherDisplay:10.37,2013-03-16 11:47:00,
2013-03-16 06:48:00,20.6,16.5,29.86,North,360,6.4,12.7,84,0.00,CLR,,0.00,WeatherDisplay:10.37,2013-03-16 11:48:00,
2013-03-16 06:49:00,20.6,16.5,29.86,NE,41,8.3,11.5,84,0.00,CLR,,0.00,WeatherDisplay:10.37,2013-03-16 11:49:00,
2013-03-16 06:51:00,20.6,16.5,29.86,North,4,6.7,11.5,84,0.00,CLR,,0.00,WeatherDisplay:10.37,2013-03-16 11:51:00,
2013-03-16 06:52:00,20.5,16.4,29.87,NNE,21,7.7,11.5,84,0.00,CLR,,0.00,WeatherDisplay:10.37,2013-03-16 11:52:00,
2013-03-16 06:54:00,20.4,16.3,29.87,North,353,5.4,10.4,84,0.00,CLR,,0.00,WeatherDisplay:10.37,2013-03-16 11:54:00,
2013-03-16 06:56:00,20.5,16.4,29.87,NNE,18,6.1,10.4,84,0.00,CLR,,0.00,WeatherDisplay:10.37,2013-03-16 11:56:00,
2013-03-16 06:57:00,20.3,16.2,29.87,NE,55,8.2,13.9,84,0.00,CLR,,0.00,WeatherDisplay:10.37,2013-03-16 11:57:00,
2013-03-16 06:59:00,20.3,16.2,29.87,NE,54,10.0,15.0,84,0.00,CLR,,0.00,WeatherDisplay:10.37,2013-03-16 11:59:00,
2013-03-16 07:02:00,20.3,16.2,29.87,NE,56,4.7,6.9,84,0.00,CLR,,0.00,WeatherDisplay:10.37,2013-03-16 12:02:00,
2013-03-16 07:03:00,20.2,16.1,29.87,NNE,17,4.7,7.2,84,0.00,CLR,,0.00,WeatherDisplay:10.37,2013-03-16 12:03:00,
2013-03-16 07:04:00,20.2,16.1,29.88,NE,34,6.7,11.5,84,0.00,CLR,,0.00,WeatherDisplay:10.37,2013-03-16 12:04:00,
2013-03-16 07:07:00,20.1,16.0,29.88,NNE,31,6.3,12.7,84,0.00,CLR,,0.00,WeatherDisplay:10.37,2013-03-16 12:07:00,
2013-03-16 07:08:00,20.1,16.0,29.88,NE,52,6.9,10.4,84,0.00,CLR,,0.00,WeatherDisplay:10.37,2013-03-16 12:08:00,
2013-03-16 07:09:00,20.1,16.0,29.88,NE,51,5.5,10.4,84,0.00,CLR,,0.00,WeatherDisplay:10.37,2013-03-16 12:09:00,
2013-03-16 07:10:00,20.1,16.0,29.88,ENE,64,5.5,8.1,84,0.00,CLR,,0.00,WeatherDisplay:10.37,2013-03-16 12:10:00,
2013-03-16 07:12:00,20.1,16.0,29.88,North,3,7.5,10.4,84,0.00,CLR,,0.00,WeatherDisplay:10.37,2013-03-16 12:12:00,
2013-03-16 07:13:00,20.1,16.0,29.88,NE,55,6.4,11.5,84,0.00,CLR,,0.00,WeatherDisplay:10.37,2013-03-16 12:13:00,
2013-03-16 07:14:00,20.0,15.9,29.88,NNE,14,5.4,9.2,84,0.00,CLR,,0.00,WeatherDisplay:10.37,2013-03-16 12:14:00,
2013-03-16 07:15:00,19.9,15.8,29.88,ENE,59,3.8,6.9,84,0.00,CLR,,0.00,WeatherDisplay:10.37,2013-03-16 12:15:00,
2013-03-16 07:17:00,20.0,15.9,29.88,NNE,21,6.8,12.7,84,0.00,CLR,,0.00,WeatherDisplay:10.37,2013-03-16 12:17:00,
2013-03-16 07:18:00,20.1,16.0,29.88,NNW,335,5.8,11.5,84,0.00,CLR,,0.00,WeatherDisplay:10.37,2013-03-16 12:18:00,
2013-03-16 07:19:00,20.0,15.9,29.88,NNE,30,7.3,11.5,84,0.00,CLR,,0.00,WeatherDisplay:10.37,2013-03-16 12:19:00,
2013-03-16 07:20:00,20.0,15.9,29.88,NE,42,7.3,11.5,84,0.00,CLR,,0.00,WeatherDisplay:10.37,2013-03-16 12:20:00,
2013-03-16 07:22:00,19.9,15.8,29.88,NNE,32,8.6,12.7,84,0.00,CLR,,0.00,WeatherDisplay:10.37,2013-03-16 12:22:00,
2013-03-16 07:23:00,19.9,15.8,29.88,NNE,25,8.8,12.7,84,0.00,CLR,,0.00,WeatherDisplay:10.37,2013-03-16 12:23:00,
2013-03-16 07:24:00,19.9,15.8,29.88,NE,42,6.6,11.5,84,0.00,CLR,,0.00,WeatherDisplay:10.37,2013-03-16 12:24:00,
2013-03-16 07:25:00,19.9,15.8,29.88,East,86,6.9,10.8,84,0.00,CLR,,0.00,WeatherDisplay:10.37,2013-03-16 12:25:00,
2013-03-16 07:28:00,19.9,15.8,29.88,NE,52,6.8,10.4,84,0.00,CLR,,0.00,WeatherDisplay:10.37,2013-03-16 12:28:00,
2013-03-16 07:29:00,19.8,15.7,29.88,NNE,28,5.1,10.4,84,0.00,CLR,,0.00,WeatherDisplay:10.37,2013-03-16 12:29:00,
2013-03-16 07:30:00,19.8,15.7,29.88,NE,55,5.4,8.1,84,0.00,CLR,,0.00,WeatherDisplay:10.37,2013-03-16 12:30:00,
2013-03-16 07:33:00,19.8,15.7,29.88,NNE,32,7.3,10.4,84,0.00,CLR,,0.00,WeatherDisplay:10.37,2013-03-16 12:33:00,
2013-03-16 07:34:00,19.8,15.7,29.88,NE,48,6.2,10.4,84,0.00,CLR,,0.00,WeatherDisplay:10.37,2013-03-16 12:34:00,
2013-03-16 07:35:00,19.8,15.7,29.89,NE,47,6.4,8.1,84,0.00,CLR,,0.00,WeatherDisplay:10.37,2013-03-16 12:35:00,
2013-03-16 07:38:00,19.8,15.7,29.89,NE,48,10.0,13.2,84,0.00,CLR,,0.00,WeatherDisplay:10.37,2013-03-16 12:38:00,
2013-03-16 07:39:00,19.8,15.7,29.89,NE,35,10.5,10.5,84,0.00,CLR,,0.00,WeatherDisplay:10.37,2013-03-16 12:39:00,
2013-03-16 07:40:00,19.7,15.6,29.89,NNW,344,7.8,10.4,84,0.00,CLR,,0.00,WeatherDisplay:10.37,2013-03-16 12:40:00,
2013-03-16 07:43:00,19.8,15.7,29.89,NNE,21,5.2,8.1,84,0.00,CLR,,0.00,WeatherDisplay:10.37,2013-03-16 12:43:00,
2013-03-16 07:44:00,19.7,15.6,29.89,North,350,4.9,8.1,84,0.00,CLR,,0.00,WeatherDisplay:10.37,2013-03-16 12:44:00,
2013-03-16 07:45:00,19.7,15.6,29.89,ENE,75,5.4,8.1,84,0.00,CLR,,0.00,WeatherDisplay:10.37,2013-03-16 12:45:00,
2013-03-16 07:49:00,19.7,15.6,29.89,NNE,16,7.7,12.7,84,0.00,CLR,,0.00,WeatherDisplay:10.37,2013-03-16 12:49:00,
2013-03-16 07:50:00,19.7,15.6,29.89,NNE,28,8.0,10.4,84,0.00,CLR,,0.00,WeatherDisplay:10.37,2013-03-16 12:50:00,
2013-03-16 07:54:00,19.7,15.6,29.90,NE,52,8.8,15.0,84,0.00,CLR,,0.00,WeatherDisplay:10.37,2013-03-16 12:54:00,
2013-03-16 07:55:00,19.7,15.6,29.90,NNE,31,9.6,13.8,84,0.00,CLR,,0.00,WeatherDisplay:10.37,2013-03-16 12:55:00,
2013-03-16 07:56:00,19.7,15.6,29.90,NE,56,9.5,13.8,84,0.00,CLR,,0.00,WeatherDisplay:10.37,2013-03-16 12:56:00,
2013-03-16 07:59:00,19.6,15.6,29.90,NE,45,6.5,15.0,84,0.00,CLR,,0.00,WeatherDisplay:10.37,2013-03-16 12:59:00,
2013-03-16 08:00:00,19.5,15.5,29.90,North,360,5.8,10.4,84,0.00,CLR,,0.00,WeatherDisplay:10.37,2013-03-16 13:00:00,
2013-03-16 08:01:00,19.6,15.6,29.90,NNE,16,5.4,10.4,84,0.00,CLR,,0.00,WeatherDisplay:10.37,2013-03-16 13:01:00,
2013-03-16 08:04:00,19.6,15.6,29.90,NE,55,5.9,10.4,84,0.00,CLR,,0.00,WeatherDisplay:10.37,2013-03-16 13:04:00,
2013-03-16 08:05:00,19.6,15.6,29.91,ENE,69,4.5,9.2,84,0.00,CLR,,0.00,WeatherDisplay:10.37,2013-03-16 13:05:00,
2013-03-16 08:06:00,19.5,15.5,29.91,NNE,32,4.7,6.9,84,0.00,CLR,,0.00,WeatherDisplay:10.37,2013-03-16 13:06:00,
2013-03-16 08:09:00,19.6,15.6,29.91,NNE,31,5.5,10.4,84,0.00,CLR,,0.00,WeatherDisplay:10.37,2013-03-16 13:09:00,
2013-03-16 08:10:00,19.5,15.5,29.91,NE,44,6.5,9.2,84,0.00,CLR,,0.00,WeatherDisplay:10.37,2013-03-16 13:10:00,
2013-03-16 08:11:00,19.5,15.5,29.91,NNE,13,8.3,12.7,84,0.00,CLR,,0.00,WeatherDisplay:10.37,2013-03-16 13:11:00,
2013-03-16 08:14:00,19.5,15.5,29.91,NE,56,8.7,13.8,84,0.00,CLR,,0.00,WeatherDisplay:10.37,2013-03-16 13:14:00,
2013-03-16 08:15:00,19.6,15.6,29.91,NNE,20,7.9,12.7,84,0.00,CLR,,0.00,WeatherDisplay:10.37,2013-03-16 13:15:00,
2013-03-16 08:16:00,19.6,15.6,29.91,NNE,28,5.7,8.1,84,0.00,CLR,,0.00,WeatherDisplay:10.37,2013-03-16 13:16:00,
2013-03-16 08:19:00,19.4,15.1,29.91,NE,42,6.4,11.5,83,0.00,CLR,,0.00,WeatherDisplay:10.37,2013-03-16 13:19:00,
2013-03-16 08:20:00,19.5,15.2,29.91,North,7,4.5,8.1,83,0.00,CLR,,0.00,WeatherDisplay:10.37,2013-03-16 13:20:00,
2013-03-16 08:21:00,19.6,15.3,29.91,NNE,30,4.9,8.0,83,0.00,CLR,,0.00,WeatherDisplay:10.37,2013-03-16 13:21:00,
2013-03-16 08:24:00,19.6,15.3,29.91,NNE,24,6.1,11.5,83,0.00,CLR,,0.00,WeatherDisplay:10.37,2013-03-16 13:24:00,
2013-03-16 08:25:00,19.6,15.3,29.91,NE,40,4.6,11.5,83,0.00,CLR,,0.00,WeatherDisplay:10.37,2013-03-16 13:25:00,
2013-03-16 08:26:00,19.6,15.3,29.91,NNE,28,5.9,9.3,83,0.00,CLR,,0.00,WeatherDisplay:10.37,2013-03-16 13:26:00,
2013-03-16 08:27:00,19.6,15.3,29.91,North,3,6.4,9.2,83,0.00,CLR,,0.00,WeatherDisplay:10.37,2013-03-16 13:27:00,
2013-03-16 08:30:00,19.7,15.4,29.92,NE,44,7.4,8.1,83,0.00,CLR,,0.00,WeatherDisplay:10.37,2013-03-16 13:30:00,
2013-03-16 08:32:00,19.6,15.3,29.92,North,360,4.6,7.3,83,0.00,CLR,,0.00,WeatherDisplay:10.37,2013-03-16 13:32:00,
2013-03-16 08:35:00,19.7,15.4,29.92,North,8,6.5,9.2,83,0.00,CLR,,0.00,WeatherDisplay:10.37,2013-03-16 13:35:00,
2013-03-16 08:37:00,19.7,15.4,29.92,North,354,5.6,9.2,83,0.00,CLR,,0.00,WeatherDisplay:10.37,2013-03-16 13:37:00,
2013-03-16 08:40:00,19.7,15.4,29.92,North,349,8.5,12.7,83,0.00,CLR,,0.00,WeatherDisplay:10.37,2013-03-16 13:40:00,
2013-03-16 08:42:00,19.6,15.3,29.92,NNE,20,7.1,11.5,83,0.00,CLR,,0.00,WeatherDisplay:10.37,2013-03-16 13:42:00,
2013-03-16 08:45:00,19.6,15.3,29.92,NNE,20,7.3,11.5,83,0.00,CLR,,0.00,WeatherDisplay:10.37,2013-03-16 13:45:00,
2013-03-16 08:47:00,19.7,15.4,29.92,North,360,5.6,11.3,83,0.00,CLR,,0.00,WeatherDisplay:10.37,2013-03-16 13:47:00,
2013-03-16 08:48:00,19.6,15.3,29.92,NE,48,8.6,11.5,83,0.00,CLR,,0.00,WeatherDisplay:10.37,2013-03-16 13:48:00,
2013-03-16 08:50:00,19.6,15.0,29.92,North,8,8.2,13.8,82,0.00,CLR,,0.00,WeatherDisplay:10.37,2013-03-16 13:50:00,
2013-03-16 08:52:00,19.7,15.1,29.92,NNE,13,8.8,15.0,82,0.00,CLR,,0.00,WeatherDisplay:10.37,2013-03-16 13:52:00,
2013-03-16 08:53:00,19.6,15.0,29.92,NE,41,7.5,11.5,82,0.00,CLR,,0.00,WeatherDisplay:10.37,2013-03-16 13:53:00,
2013-03-16 08:55:00,19.7,15.1,29.92,North,360,6.6,9.2,82,0.00,CLR,,0.00,WeatherDisplay:10.37,2013-03-16 13:55:00,
2013-03-16 08:57:00,19.7,15.1,29.92,NNE,25,6.8,8.1,82,0.00,CLR,,0.00,WeatherDisplay:10.37,2013-03-16 13:57:00,
2013-03-16 08:58:00,19.7,15.1,29.92,NNE,27,6.7,10.4,82,0.00,CLR,,0.00,WeatherDisplay:10.37,2013-03-16 13:58:00,
2013-03-16 09:01:00,19.8,15.2,29.93,NE,54,4.3,8.1,82,0.00,CLR,,0.00,WeatherDisplay:10.37,2013-03-16 14:01:00,
2013-03-16 09:02:00,19.9,15.3,29.93,NNE,30,6.6,9.2,82,0.00,CLR,,0.00,WeatherDisplay:10.37,2013-03-16 14:02:00,
2013-03-16 09:03:00,19.8,15.2,29.93,North,353,5.0,10.4,82,0.00,CLR,,0.00,WeatherDisplay:10.37,2013-03-16 14:03:00,
2013-03-16 09:06:00,19.9,15.3,29.93,NNW,344,5.8,9.2,82,0.00,CLR,,0.00,WeatherDisplay:10.37,2013-03-16 14:06:00,
2013-03-16 09:07:00,19.9,15.3,29.93,NNW,335,4.1,6.9,82,0.00,CLR,,0.00,WeatherDisplay:10.37,2013-03-16 14:07:00,
2013-03-16 09:08:00,19.8,15.2,29.93,NE,34,5.5,9.2,82,0.00,CLR,,0.00,WeatherDisplay:10.37,2013-03-16 14:08:00,
2013-03-16 09:09:00,20.0,15.4,29.93,NNE,24,6.2,9.2,82,0.00,CLR,,0.00,WeatherDisplay:10.37,2013-03-16 14:09:00,
2013-03-16 09:11:00,20.0,15.1,29.93,NNW,347,7.0,10.4,81,0.00,CLR,,0.00,WeatherDisplay:10.37,2013-03-16 14:11:00,
2013-03-16 09:13:00,19.9,15.0,29.94,NNE,32,8.1,12.7,81,0.00,CLR,,0.00,WeatherDisplay:10.37,2013-03-16 14:13:00,
2013-03-16 09:14:00,19.9,15.0,29.94,NNE,32,6.4,9.2,81,0.00,CLR,,0.00,WeatherDisplay:10.37,2013-03-16 14:14:00,
2013-03-16 09:17:00,20.0,15.1,29.94,NNE,31,4.1,5.8,81,0.00,CLR,,0.00,WeatherDisplay:10.37,2013-03-16 14:17:00,
2013-03-16 09:18:00,19.9,15.0,29.94,North,357,6.0,7.8,81,0.00,CLR,,0.00,WeatherDisplay:10.37,2013-03-16 14:18:00,
2013-03-16 09:20:00,20.0,14.8,29.94,NNE,25,8.4,11.5,80,0.00,CLR,,0.00,WeatherDisplay:10.37,2013-03-16 14:20:00,
2013-03-16 09:23:00,20.1,14.9,29.94,NNE,28,5.6,9.2,80,0.00,CLR,,0.00,WeatherDisplay:10.37,2013-03-16 14:23:00,
2013-03-16 09:25:00,20.0,14.8,29.94,NNE,30,5.8,10.4,80,0.00,CLR,,0.00,WeatherDisplay:10.37,2013-03-16 14:25:00,
2013-03-16 09:28:00,20.1,14.9,29.95,North,354,5.2,9.3,80,0.00,CLR,,0.00,WeatherDisplay:10.37,2013-03-16 14:28:00,
2013-03-16 09:29:00,20.1,14.9,29.95,North,1,6.2,6.9,80,0.00,CLR,,0.00,WeatherDisplay:10.37,2013-03-16 14:29:00,
2013-03-16 09:30:00,20.2,15.0,29.95,North,6,3.0,8.1,80,0.00,CLR,,0.00,WeatherDisplay:10.37,2013-03-16 14:30:00,
2013-03-16 09:33:00,20.3,15.1,29.95,NNE,16,4.5,8.1,80,0.00,CLR,,0.00,WeatherDisplay:10.37,2013-03-16 14:33:00,
2013-03-16 09:34:00,20.3,15.1,29.95,NNE,17,4.7,8.1,80,0.00,CLR,,0.00,WeatherDisplay:10.37,2013-03-16 14:34:00,
2013-03-16 09:35:00,20.3,15.1,29.95,NNW,335,0.8,4.5,80,0.00,CLR,,0.00,WeatherDisplay:10.37,2013-03-16 14:35:00,
2013-03-16 09:38:00,20.3,14.8,29.95,NNE,23,4.4,8.1,79,0.00,CLR,,0.00,WeatherDisplay:10.37,2013-03-16 14:38:00,
2013-03-16 09:39:00,20.4,14.9,29.95,NNE,20,5.7,8.1,79,0.00,CLR,,0.00,WeatherDisplay:10.37,2013-03-16 14:39:00,
2013-03-16 09:40:00,20.4,14.9,29.95,NNE,20,6.0,9.2,79,0.00,CLR,,0.00,WeatherDisplay:10.37,2013-03-16 14:40:00,
2013-03-16 09:43:00,20.4,14.9,29.95,North,354,5.6,14.1,79,0.00,CLR,,0.00,WeatherDisplay:10.37,2013-03-16 14:43:00,
2013-03-16 09:44:00,20.4,14.9,29.95,North,1,8.6,13.8,79,0.00,CLR,,0.00,WeatherDisplay:10.37,2013-03-16 14:44:00,
2013-03-16 09:45:00,20.4,14.6,29.96,NNE,32,7.8,9.2,78,0.00,CLR,,0.00,WeatherDisplay:10.37,2013-03-16 14:45:00,
2013-03-16 09:48:00,20.4,14.6,29.95,NNE,18,5.5,9.2,78,0.00,CLR,,0.00,WeatherDisplay:10.37,2013-03-16 14:48:00,
2013-03-16 09:49:00,20.4,14.6,29.96,NNW,329,7.0,10.2,78,0.00,CLR,,0.00,WeatherDisplay:10.37,2013-03-16 14:49:00,
2013-03-16 09:50:00,20.4,14.6,29.95,North,3,6.5,13.8,78,0.00,CLR,,0.00,WeatherDisplay:10.37,2013-03-16 14:50:00,
2013-03-16 09:53:00,20.3,14.5,29.95,NNE,16,6.2,11.5,78,0.00,CLR,,0.00,WeatherDisplay:10.37,2013-03-16 14:53:00,
2013-03-16 09:54:00,20.3,14.5,29.96,NE,37,7.0,9.2,78,0.00,CLR,,0.00,WeatherDisplay:10.37,2013-03-16 14:54:00,
2013-03-16 09:55:00,20.4,14.6,29.96,NNE,25,7.2,10.2,78,0.00,CLR,,0.00,WeatherDisplay:10.37,2013-03-16 14:55:00,
2013-03-16 09:56:00,20.4,14.6,29.95,NE,37,6.4,10.4,78,0.00,CLR,,0.00,WeatherDisplay:10.37,2013-03-16 14:56:00,
2013-03-16 09:58:00,20.5,14.7,29.96,NE,48,3.9,8.1,78,0.00,CLR,,0.00,WeatherDisplay:10.37,2013-03-16 14:58:00,
2013-03-16 09:59:00,20.5,14.7,29.96,NNW,343,4.3,5.9,78,0.00,CLR,,0.00,WeatherDisplay:10.37,2013-03-16 14:59:00,
2013-03-16 10:00:00,20.6,14.8,29.96,North,360,5.1,6.5,78,0.00,CLR,,0.00,WeatherDisplay:10.37,2013-03-16 15:00:00,
2013-03-16 10:01:00,20.5,14.7,29.96,NNE,18,5.8,9.2,78,0.00,CLR,,0.00,WeatherDisplay:10.37,2013-03-16 15:01:00,
2013-03-16 10:04:00,20.6,14.8,29.96,North,4,6.3,8.0,78,0.00,CLR,,0.00,WeatherDisplay:10.37,2013-03-16 15:04:00,
2013-03-16 10:05:00,20.6,14.8,29.96,North,360,7.5,9.2,78,0.00,CLR,,0.00,WeatherDisplay:10.37,2013-03-16 15:05:00,
2013-03-16 10:07:00,20.6,14.5,29.96,North,4,6.7,11.5,77,0.00,CLR,,0.00,WeatherDisplay:10.37,2013-03-16 15:07:00,
2013-03-16 10:09:00,20.8,14.7,29.96,NNE,20,5.4,9.2,77,0.00,CLR,,0.00,WeatherDisplay:10.37,2013-03-16 15:09:00,
2013-03-16 10:10:00,20.8,14.7,29.96,NE,51,5.9,9.2,77,0.00,CLR,,0.00,WeatherDisplay:10.37,2013-03-16 15:10:00,
2013-03-16 10:13:00,20.8,14.7,29.96,NNE,27,6.1,11.5,77,0.00,CLR,,0.00,WeatherDisplay:10.37,2013-03-16 15:13:00,
2013-03-16 10:14:00,20.8,14.7,29.96,North,3,6.5,9.2,77,0.00,CLR,,0.00,WeatherDisplay:10.37,2013-03-16 15:14:00,
2013-03-16 10:15:00,20.8,14.7,29.96,NNE,30,6.4,9.2,77,0.00,CLR,,0.00,WeatherDisplay:10.37,2013-03-16 15:15:00,
2013-03-16 10:16:00,20.9,14.8,29.96,NNE,17,6.7,9.2,77,0.00,CLR,,0.00,WeatherDisplay:10.37,2013-03-16 15:16:00,
2013-03-16 10:18:00,21.0,14.9,29.96,North,3,4.0,5.8,77,0.00,CLR,,0.00,WeatherDisplay:10.37,2013-03-16 15:18:00,
2013-03-16 10:19:00,21.1,15.0,29.97,NNE,24,4.8,8.1,77,0.00,CLR,,0.00,WeatherDisplay:10.37,2013-03-16 15:19:00,
2013-03-16 10:20:00,21.0,14.9,29.97,West,278,2.5,6.9,77,0.00,CLR,,0.00,WeatherDisplay:10.37,2013-03-16 15:20:00,
2013-03-16 10:21:00,21.0,14.9,29.97,West,280,2.1,6.9,77,0.00,CLR,,0.00,WeatherDisplay:10.37,2013-03-16 15:21:00,
2013-03-16 10:23:00,21.2,15.1,29.98,NNE,21,4.0,7.5,77,0.00,CLR,,0.00,WeatherDisplay:10.37,2013-03-16 15:23:00,
2013-03-16 10:24:00,21.1,15.0,29.98,NE,35,4.4,8.1,77,0.00,CLR,,0.00,WeatherDisplay:10.37,2013-03-16 15:24:00,
2013-03-16 10:25:00,21.3,15.2,29.98,NW,325,3.6,6.9,77,0.00,CLR,,0.00,WeatherDisplay:10.37,2013-03-16 15:25:00,
2013-03-16 10:26:00,21.3,15.2,29.98,NW,309,3.2,6.9,77,0.00,CLR,,0.00,WeatherDisplay:10.37,2013-03-16 15:26:00,
2013-03-16 10:28:00,21.3,15.2,29.98,North,3,5.5,8.5,77,0.00,CLR,,0.00,WeatherDisplay:10.37,2013-03-16 15:28:00,
2013-03-16 10:30:00,21.3,15.2,29.98,North,360,7.1,9.2,77,0.00,CLR,,0.00,WeatherDisplay:10.37,2013-03-16 15:30:00,
2013-03-16 10:31:00,21.3,15.2,29.98,NNW,337,7.6,9.2,77,0.00,CLR,,0.00,WeatherDisplay:10.37,2013-03-16 15:31:00,
2013-03-16 10:33:00,21.2,14.8,29.98,NNE,17,5.3,9.2,76,0.00,CLR,,0.00,WeatherDisplay:10.37,2013-03-16 15:33:00,
2013-03-16 10:35:00,21.3,14.9,29.98,North,350,6.8,10.4,76,0.00,CLR,,0.00,WeatherDisplay:10.37,2013-03-16 15:35:00,
2013-03-16 10:36:00,21.3,14.9,29.98,NW,325,6.7,10.4,76,0.00,CLR,,0.00,WeatherDisplay:10.37,2013-03-16 15:36:00,
2013-03-16 10:39:00,21.3,14.9,29.98,NNE,32,4.7,8.1,76,0.00,CLR,,0.00,WeatherDisplay:10.37,2013-03-16 15:39:00,
2013-03-16 10:40:00,21.5,15.4,29.98,NE,42,6.0,10.4,77,0.00,CLR,,0.00,WeatherDisplay:10.37,2013-03-16 15:40:00,
2013-03-16 10:41:00,21.3,15.2,29.98,North,360,5.9,10.4,77,0.00,CLR,,0.00,WeatherDisplay:10.37,2013-03-16 15:41:00,
2013-03-16 10:42:00,21.4,15.3,29.98,NNE,25,5.2,10.2,77,0.00,CLR,,0.00,WeatherDisplay:10.37,2013-03-16 15:42:00,
2013-03-16 10:45:00,21.7,15.3,29.98,WNW,282,5.6,10.4,76,0.00,CLR,,0.00,WeatherDisplay:10.37,2013-03-16 15:45:00,
2013-03-16 10:47:00,21.7,15.3,29.98,North,8,6.4,8.1,76,0.00,CLR,,0.00,WeatherDisplay:10.37,2013-03-16 15:47:00,
2013-03-16 10:50:00,21.7,15.3,29.99,North,1,5.7,6.9,76,0.00,CLR,,0.00,WeatherDisplay:10.37,2013-03-16 15:50:00,
2013-03-16 10:51:00,21.8,15.4,29.99,NNE,13,4.8,8.1,76,0.00,CLR,,0.00,WeatherDisplay:10.37,2013-03-16 15:51:00,
2013-03-16 10:52:00,21.8,15.4,29.99,NNE,27,4.5,5.8,76,0.00,CLR,,0.00,WeatherDisplay:10.37,2013-03-16 15:52:00,
2013-03-16 10:53:00,21.9,15.5,29.99,NNE,23,4.0,5.8,76,0.00,CLR,,0.00,WeatherDisplay:10.37,2013-03-16 15:53:00,
2013-03-16 10:55:00,22.0,15.6,29.99,NE,51,6.0,9.2,76,0.00,CLR,,0.00,WeatherDisplay:10.37,2013-03-16 15:55:00,
2013-03-16 10:56:00,21.9,15.5,29.99,NNE,24,7.1,10.4,76,0.00,CLR,,0.00,WeatherDisplay:10.37,2013-03-16 15:56:00,
2013-03-16 10:57:00,22.1,15.7,29.99,ENE,59,5.3,6.9,76,0.00,CLR,,0.00,WeatherDisplay:10.37,2013-03-16 15:57:00,
2013-03-16 10:59:00,22.1,15.7,29.99,North,3,6.4,9.2,76,0.00,CLR,,0.00,WeatherDisplay:10.37,2013-03-16 15:59:00,
2013-03-16 11:00:00,22.1,15.7,29.99,NNW,335,4.7,6.9,76,0.00,CLR,,0.00,WeatherDisplay:10.37,2013-03-16 16:00:00,
2013-03-16 11:01:00,22.3,15.9,29.99,NNW,332,4.1,6.9,76,0.00,CLR,,0.00,WeatherDisplay:10.37,2013-03-16 16:01:00,
2013-03-16 11:02:00,22.3,15.6,29.99,North,11,3.1,6.9,75,0.00,CLR,,0.00,WeatherDisplay:10.37,2013-03-16 16:02:00,
2013-03-16 11:04:00,22.4,15.7,29.99,NNE,31,5.1,8.1,75,0.00,CLR,,0.00,WeatherDisplay:10.37,2013-03-16 16:04:00,
2013-03-16 11:05:00,22.4,15.7,29.99,East,82,4.0,6.9,75,0.00,CLR,,0.00,WeatherDisplay:10.37,2013-03-16 16:05:00,
2013-03-16 11:07:00,22.6,15.9,30.00,NNE,13,4.6,7.1,75,0.00,CLR,,0.00,WeatherDisplay:10.37,2013-03-16 16:07:00,
2013-03-16 11:09:00,22.5,15.8,30.00,NW,313,5.0,8.1,75,0.00,CLR,,0.00,WeatherDisplay:10.37,2013-03-16 16:09:00,
2013-03-16 11:10:00,22.5,15.8,30.00,NNW,335,5.4,7.3,75,0.00,CLR,,0.00,WeatherDisplay:10.37,2013-03-16 16:10:00,
2013-03-16 11:12:00,22.6,15.9,30.00,North,360,5.3,8.1,75,0.00,CLR,,0.00,WeatherDisplay:10.37,2013-03-16 16:12:00,
2013-03-16 11:13:00,22.5,15.8,30.00,NE,41,4.8,8.1,75,0.00,CLR,,0.00,WeatherDisplay:10.37,2013-03-16 16:13:00,
2013-03-16 11:14:00,22.6,15.9,30.00,NNW,347,3.0,5.8,75,0.00,CLR,,0.00,WeatherDisplay:10.37,2013-03-16 16:14:00,
2013-03-16 11:17:00,22.7,16.0,30.00,NW,323,5.3,8.1,75,0.00,CLR,,0.00,WeatherDisplay:10.37,2013-03-16 16:17:00,
2013-03-16 11:19:00,22.7,15.7,30.00,North,360,5.9,9.2,74,0.00,CLR,,0.00,WeatherDisplay:10.37,2013-03-16 16:19:00,
2013-03-16 11:22:00,22.7,15.7,30.00,WNW,295,4.9,8.1,74,0.00,CLR,,0.00,WeatherDisplay:10.37,2013-03-16 16:22:00,
2013-03-16 11:23:00,22.8,15.8,30.00,NW,325,5.3,8.1,74,0.00,CLR,,0.00,WeatherDisplay:10.37,2013-03-16 16:23:00,
2013-03-16 11:24:00,22.6,15.6,30.00,North,359,6.1,10.4,74,0.00,CLR,,0.00,WeatherDisplay:10.37,2013-03-16 16:24:00,
2013-03-16 11:28:00,22.7,15.7,30.00,NNE,24,2.9,8.1,74,0.00,CLR,,0.00,WeatherDisplay:10.37,2013-03-16 16:28:00,
2013-03-16 11:29:00,22.6,15.6,30.01,North,3,5.7,8.1,74,0.00,CLR,,0.00,WeatherDisplay:10.37,2013-03-16 16:29:00,
2013-03-16 11:30:00,22.7,15.7,30.01,NNW,346,5.6,8.1,74,0.00,CLR,,0.00,WeatherDisplay:10.37,2013-03-16 16:30:00,
2013-03-16 11:33:00,22.7,15.7,30.00,North,11,6.5,8.9,74,0.00,CLR,,0.00,WeatherDisplay:10.37,2013-03-16 16:33:00,
2013-03-16 11:34:00,22.7,15.7,30.00,ENE,64,4.4,9.2,74,0.00,CLR,,0.00,WeatherDisplay:10.37,2013-03-16 16:34:00,
2013-03-16 11:35:00,22.7,15.7,30.00,NW,325,2.8,5.8,74,0.00,CLR,,0.00,WeatherDisplay:10.37,2013-03-16 16:35:00,
2013-03-16 11:38:00,23.0,15.9,30.00,North,8,4.7,8.1,74,0.00,CLR,,0.00,WeatherDisplay:10.37,2013-03-16 16:38:00,
2013-03-16 11:39:00,22.9,15.8,30.00,North,7,3.6,9.2,74,0.00,CLR,,0.00,WeatherDisplay:10.37,2013-03-16 16:39:00,
2013-03-16 11:40:00,22.9,15.8,30.00,East,90,3.1,5.8,74,0.00,CLR,,0.00,WeatherDisplay:10.37,2013-03-16 16:40:00,
2013-03-16 11:44:00,23.3,16.2,30.00,NNW,328,5.9,8.1,74,0.00,CLR,,0.00,WeatherDisplay:10.37,2013-03-16 16:44:00,
2013-03-16 11:45:00,23.3,15.9,30.00,NNE,20,4.7,9.2,73,0.00,CLR,,0.00,WeatherDisplay:10.37,2013-03-16 16:45:00,
2013-03-16 11:49:00,23.4,16.0,30.00,NNE,18,5.7,6.9,73,0.00,CLR,,0.00,WeatherDisplay:10.37,2013-03-16 16:49:00,
2013-03-16 11:50:00,23.4,15.7,30.00,NNW,329,6.2,6.9,72,0.00,CLR,,0.00,WeatherDisplay:10.37,2013-03-16 16:50:00,
2013-03-16 11:54:00,23.6,16.2,30.00,NNE,28,6.2,10.4,73,0.00,CLR,,0.00,WeatherDisplay:10.37,2013-03-16 16:54:00,
2013-03-16 11:55:00,23.7,16.3,30.00,NE,42,5.1,8.1,73,0.00,CLR,,0.00,WeatherDisplay:10.37,2013-03-16 16:55:00,
2013-03-16 11:59:00,24.0,16.6,30.01,NW,313,4.2,5.8,73,0.00,CLR,,0.00,WeatherDisplay:10.37,2013-03-16 16:59:00,
2013-03-16 12:00:00,24.0,16.6,30.00,North,360,4.3,5.8,73,0.00,CLR,,0.00,WeatherDisplay:10.37,2013-03-16 17:00:00,
2013-03-16 12:04:00,24.4,17.0,30.01,NW,319,2.4,8.1,73,0.00,CLR,,0.00,WeatherDisplay:10.37,2013-03-16 17:04:00,
2013-03-16 12:05:00,24.5,16.8,30.01,North,360,2.5,5.8,72,0.00,CLR,,0.00,WeatherDisplay:10.37,2013-03-16 17:05:00,
2013-03-16 12:09:00,24.8,17.1,30.01,North,4,4.9,6.9,72,0.00,CLR,,0.00,WeatherDisplay:10.37,2013-03-16 17:09:00,
2013-03-16 12:10:00,24.9,17.1,30.01,NNE,18,6.4,8.1,72,0.00,CLR,,0.00,WeatherDisplay:10.37,2013-03-16 17:10:00,
2013-03-16 12:14:00,25.0,16.9,30.01,NW,315,4.4,6.9,71,0.00,CLR,,0.00,WeatherDisplay:10.37,2013-03-16 17:14:00,
2013-03-16 12:15:00,25.1,17.0,30.01,North,3,2.9,5.8,71,0.00,CLR,,0.00,WeatherDisplay:10.37,2013-03-16 17:15:00,
2013-03-16 12:16:00,25.1,17.0,30.01,North,360,4.8,5.8,71,0.00,CLR,,0.00,WeatherDisplay:10.37,2013-03-16 17:16:00,
2013-03-16 12:19:00,25.3,17.2,30.00,NNE,31,5.1,6.9,71,0.00,CLR,,0.00,WeatherDisplay:10.37,2013-03-16 17:19:00,
2013-03-16 12:20:00,25.3,17.2,30.00,North,0,5.6,8.1,71,0.00,CLR,,0.00,WeatherDisplay:10.37,2013-03-16 17:20:00,
2013-03-16 12:21:00,25.4,17.0,30.00,NNE,24,4.6,8.1,70,0.00,CLR,,0.00,WeatherDisplay:10.37,2013-03-16 17:21:00,
2013-03-16 12:24:00,25.5,17.1,30.01,North,8,3.7,5.8,70,0.00,CLR,,0.00,WeatherDisplay:10.37,2013-03-16 17:24:00,
2013-03-16 12:25:00,25.7,17.3,30.00,NE,34,3.8,5.1,70,0.00,CLR,,0.00,WeatherDisplay:10.37,2013-03-16 17:25:00,
2013-03-16 12:26:00,25.7,17.3,30.00,NE,51,4.3,6.5,70,0.00,CLR,,0.00,WeatherDisplay:10.37,2013-03-16 17:26:00,
2013-03-16 12:29:00,26.0,17.6,30.01,NNE,31,4.5,8.1,70,0.00,CLR,,0.00,WeatherDisplay:10.37,2013-03-16 17:29:00,
2013-03-16 12:30:00,26.0,17.6,30.01,North,3,3.0,6.6,70,0.00,CLR,,0.00,WeatherDisplay:10.37,2013-03-16 17:30:00,
2013-03-16 12:31:00,26.0,17.6,30.01,NW,311,3.3,5.8,70,0.00,CLR,,0.00,WeatherDisplay:10.37,2013-03-16 17:31:00,
2013-03-16 12:35:00,26.3,17.5,30.01,NNE,32,5.8,8.1,69,0.00,CLR,,0.00,WeatherDisplay:10.37,2013-03-16 17:35:00,
2013-03-16 12:36:00,26.5,17.7,30.01,NNW,335,3.9,6.2,69,0.00,CLR,,0.00,WeatherDisplay:10.37,2013-03-16 17:36:00,
2013-03-16 12:37:00,26.5,17.7,30.01,WNW,289,3.2,5.8,69,0.00,CLR,,0.00,WeatherDisplay:10.37,2013-03-16 17:37:00,
2013-03-16 12:40:00,26.6,17.8,30.01,NNW,330,2.2,4.6,69,0.00,CLR,,0.00,WeatherDisplay:10.37,2013-03-16 17:40:00,
2013-03-16 12:42:00,26.9,18.1,30.01,NE,45,4.3,8.0,69,0.00,CLR,,0.00,WeatherDisplay:10.37,2013-03-16 17:42:00,
2013-03-16 12:45:00,27.1,18.3,30.01,NNE,28,2.6,6.9,69,0.00,CLR,,0.00,WeatherDisplay:10.37,2013-03-16 17:45:00,
2013-03-16 12:47:00,27.2,18.0,30.01,NW,313,1.8,4.7,68,0.00,CLR,,0.00,WeatherDisplay:10.37,2013-03-16 17:47:00,
2013-03-16 12:48:00,27.2,18.0,30.01,North,349,2.7,4.0,68,0.00,CLR,,0.00,WeatherDisplay:10.37,2013-03-16 17:48:00,
2013-03-16 12:50:00,27.3,17.8,30.01,West,261,4.5,9.2,67,0.00,CLR,,0.00,WeatherDisplay:10.37,2013-03-16 17:50:00,
2013-03-16 12:53:00,27.3,17.8,30.01,NNE,31,4.2,5.8,67,0.00,CLR,,0.00,WeatherDisplay:10.37,2013-03-16 17:53:00,
2013-03-16 12:55:00,27.3,17.8,30.01,North,4,2.4,5.9,67,0.00,CLR,,0.00,WeatherDisplay:10.37,2013-03-16 17:55:00,
2013-03-16 12:56:00,27.3,17.8,30.01,North,11,2.6,6.2,67,0.00,CLR,,0.00,WeatherDisplay:10.37,2013-03-16 17:56:00,
2013-03-16 12:58:00,27.4,17.9,30.01,North,1,4.7,6.9,67,0.00,CLR,,0.00,WeatherDisplay:10.37,2013-03-16 17:58:00,
2013-03-16 13:01:00,27.4,17.9,30.01,NNW,339,4.0,6.9,67,0.00,CLR,,0.00,WeatherDisplay:10.37,2013-03-16 18:01:00,
2013-03-16 13:03:00,27.4,17.9,30.01,NNW,328,4.2,6.9,67,0.00,CLR,,0.00,WeatherDisplay:10.37,2013-03-16 18:03:00,
2013-03-16 13:06:00,27.5,17.6,30.01,North,360,4.9,8.1,66,0.00,CLR,,0.00,WeatherDisplay:10.37,2013-03-16 18:06:00,
2013-03-16 13:07:00,27.5,17.6,30.01,NNW,346,4.3,6.2,66,0.00,CLR,,0.00,WeatherDisplay:10.37,2013-03-16 18:07:00,
2013-03-16 13:08:00,27.6,17.7,30.01,NNE,25,4.4,5.8,66,0.00,CLR,,0.00,WeatherDisplay:10.37,2013-03-16 18:08:00,
2013-03-16 13:11:00,27.5,17.6,30.01,WNW,289,4.2,8.1,66,0.00,CLR,,0.00,WeatherDisplay:10.37,2013-03-16 18:11:00,
2013-03-16 13:13:00,27.6,17.7,30.01,SE,133,1.6,4.6,66,0.00,CLR,,0.00,WeatherDisplay:10.37,2013-03-16 18:13:00,
2013-03-16 13:16:00,27.6,18.1,30.01,NE,45,1.7,5.8,67,0.00,CLR,,0.00,WeatherDisplay:10.37,2013-03-16 18:16:00,
2013-03-16 13:18:00,27.8,18.3,30.01,North,3,2.7,4.6,67,0.00,CLR,,0.00,WeatherDisplay:10.37,2013-03-16 18:18:00,
2013-03-16 13:19:00,28.0,18.5,30.01,NW,313,1.6,3.5,67,0.00,CLR,,0.00,WeatherDisplay:10.37,2013-03-16 18:19:00,
2013-03-16 13:21:00,28.0,18.5,30.01,NNW,336,3.6,4.7,67,0.00,CLR,,0.00,WeatherDisplay:10.37,2013-03-16 18:21:00,
2013-03-16 13:23:00,28.3,18.4,30.01,NW,320,2.6,4.6,66,0.00,CLR,,0.00,WeatherDisplay:10.37,2013-03-16 18:23:00,
2013-03-16 13:24:00,28.3,18.4,30.01,WNW,302,2.4,4.6,66,0.00,CLR,,0.00,WeatherDisplay:10.37,2013-03-16 18:24:00,
2013-03-16 13:27:00,28.5,18.6,30.01,North,4,4.3,4.6,66,0.00,CLR,,0.00,WeatherDisplay:10.37,2013-03-16 18:27:00,
2013-03-16 13:29:00,28.6,18.7,30.01,NW,315,4.5,5.8,66,0.00,CLR,,0.00,WeatherDisplay:10.37,2013-03-16 18:29:00,
2013-03-16 13:32:00,28.6,18.3,30.01,NNW,344,3.2,5.8,65,0.00,CLR,,0.00,WeatherDisplay:10.37,2013-03-16 18:32:00,
2013-03-16 13:34:00,28.6,18.3,30.01,North,0,3.0,4.6,65,0.00,CLR,,0.00,WeatherDisplay:10.37,2013-03-16 18:34:00,
2013-03-16 13:35:00,28.6,18.3,30.01,NNE,31,3.1,4.6,65,0.00,CLR,,0.00,WeatherDisplay:10.37,2013-03-16 18:35:00,
2013-03-16 13:37:00,28.8,18.5,30.01,NW,309,5.0,6.9,65,0.00,CLR,,0.00,WeatherDisplay:10.37,2013-03-16 18:37:00,
2013-03-16 13:39:00,28.7,18.4,30.01,ESE,119,1.5,3.5,65,0.00,CLR,,0.00,WeatherDisplay:10.37,2013-03-16 18:39:00,
2013-03-16 13:40:00,28.8,18.5,30.01,North,0,2.3,4.3,65,0.00,CLR,,0.00,WeatherDisplay:10.37,2013-03-16 18:40:00,
2013-03-16 13:43:00,28.8,18.1,30.01,NNW,337,4.7,6.9,64,0.00,CLR,,0.00,WeatherDisplay:10.37,2013-03-16 18:43:00,
2013-03-16 13:44:00,28.9,18.2,30.01,WNW,291,2.5,5.8,64,0.00,CLR,,0.00,WeatherDisplay:10.37,2013-03-16 18:44:00,
2013-03-16 13:45:00,28.9,18.2,30.01,NE,34,3.0,5.8,64,0.00,CLR,,0.00,WeatherDisplay:10.37,2013-03-16 18:45:00,
2013-03-16 13:48:00,28.9,18.2,30.01,NNW,329,4.2,6.9,64,0.00,CLR,,0.00,WeatherDisplay:10.37,2013-03-16 18:48:00,
2013-03-16 13:49:00,29.0,18.3,30.01,NE,48,3.5,4.6,64,0.00,CLR,,0.00,WeatherDisplay:10.37,2013-03-16 18:49:00,
2013-03-16 13:50:00,29.0,18.3,30.01,North,8,3.0,4.6,64,0.00,CLR,,0.00,WeatherDisplay:10.37,2013-03-16 18:50:00,
2013-03-16 13:54:00,29.0,18.3,30.01,NNW,337,4.4,5.5,64,0.00,CLR,,0.00,WeatherDisplay:10.37,2013-03-16 18:54:00,
2013-03-16 13:55:00,29.1,18.4,30.01,North,360,4.4,6.9,64,0.00,CLR,,0.00,WeatherDisplay:10.37,2013-03-16 18:55:00,
2013-03-16 13:59:00,29.2,18.5,30.01,NNE,24,0.6,3.5,64,0.00,CLR,,0.00,WeatherDisplay:10.37,2013-03-16 18:59:00,
2013-03-16 14:00:00,29.2,18.5,30.01,NNW,329,2.6,5.8,64,0.00,CLR,,0.00,WeatherDisplay:10.37,2013-03-16 19:00:00,
2013-03-16 14:04:00,29.4,18.7,30.01,NE,49,1.9,4.6,64,0.00,CLR,,0.00,WeatherDisplay:10.37,2013-03-16 19:04:00,
2013-03-16 14:05:00,29.4,18.3,30.01,WNW,301,2.3,5.8,63,0.00,CLR,,0.00,WeatherDisplay:10.37,2013-03-16 19:05:00,
2013-03-16 14:09:00,29.6,18.9,30.01,WSW,251,4.4,5.8,64,0.00,CLR,,0.00,WeatherDisplay:10.37,2013-03-16 19:09:00,
2013-03-16 14:10:00,29.6,18.9,30.01,West,278,3.6,5.8,64,0.00,CLR,,0.00,WeatherDisplay:10.37,2013-03-16 19:10:00,
2013-03-16 14:14:00,29.5,18.4,30.01,NNE,20,2.5,4.6,63,0.00,CLR,,0.00,WeatherDisplay:10.37,2013-03-16 19:14:00,
2013-03-16 14:15:00,29.4,18.3,30.01,NNE,17,2.2,3.7,63,0.00,CLR,,0.00,WeatherDisplay:10.37,2013-03-16 19:15:00,
2013-03-16 14:19:00,29.5,18.8,30.01,NNE,24,3.2,5.8,64,0.00,CLR,,0.00,WeatherDisplay:10.37,2013-03-16 19:19:00,
2013-03-16 14:20:00,29.5,18.8,30.01,NE,49,3.3,6.0,64,0.00,CLR,,0.00,WeatherDisplay:10.37,2013-03-16 19:20:00,
2013-03-16 14:21:00,29.5,18.8,30.01,North,10,4.9,6.9,64,0.00,CLR,,0.00,WeatherDisplay:10.37,2013-03-16 19:21:00,
2013-03-16 14:24:00,29.6,18.5,30.01,NW,323,1.6,4.6,63,0.00,CLR,,0.00,WeatherDisplay:10.37,2013-03-16 19:24:00,
2013-03-16 14:25:00,29.6,18.5,30.01,WNW,296,1.5,2.5,63,0.00,CLR,,0.00,WeatherDisplay:10.37,2013-03-16 19:25:00,
2013-03-16 14:27:00,29.6,18.5,30.01,North,357,4.2,6.8,63,0.00,CLR,,0.00,WeatherDisplay:10.37,2013-03-16 19:27:00,
2013-03-16 14:29:00,29.6,18.5,30.01,NW,320,1.9,5.8,63,0.00,CLR,,0.00,WeatherDisplay:10.37,2013-03-16 19:29:00,
2013-03-16 14:30:00,29.7,18.6,30.01,NNW,337,1.4,2.3,63,0.00,CLR,,0.00,WeatherDisplay:10.37,2013-03-16 19:30:00,
2013-03-16 14:33:00,29.7,18.6,30.01,NNW,340,4.9,7.4,63,0.00,CLR,,0.00,WeatherDisplay:10.37,2013-03-16 19:33:00,
2013-03-16 14:34:00,29.7,18.6,30.01,NE,44,4.1,5.8,63,0.00,CLR,,0.00,WeatherDisplay:10.37,2013-03-16 19:34:00,
2013-03-16 14:35:00,29.7,18.6,30.01,NE,38,4.5,5.8,63,0.00,CLR,,0.00,WeatherDisplay:10.37,2013-03-16 19:35:00,
2013-03-16 14:38:00,29.9,19.2,30.01,ENE,58,3.3,4.6,64,0.00,CLR,,0.00,WeatherDisplay:10.37,2013-03-16 19:38:00,
2013-03-16 14:40:00,29.9,19.2,30.01,NNE,20,3.3,5.8,64,0.00,CLR,,0.00,WeatherDisplay:10.37,2013-03-16 19:40:00,
2013-03-16 14:43:00,30.2,19.1,30.01,West,280,3.1,5.2,63,0.00,CLR,,0.00,WeatherDisplay:10.37,2013-03-16 19:43:00,
2013-03-16 14:45:00,30.2,19.1,30.01,NW,318,4.1,4.6,63,0.00,CLR,,0.00,WeatherDisplay:10.37,2013-03-16 19:45:00,
2013-03-16 14:48:00,30.4,19.3,30.01,North,354,2.2,4.0,63,0.00,CLR,,0.00,WeatherDisplay:10.37,2013-03-16 19:48:00,
2013-03-16 14:50:00,30.5,19.0,30.01,NW,326,2.8,5.7,62,0.00,CLR,,0.00,WeatherDisplay:10.37,2013-03-16 19:50:00,
2013-03-16 14:51:00,30.5,19.0,30.01,NNW,329,4.7,6.2,62,0.00,CLR,,0.00,WeatherDisplay:10.37,2013-03-16 19:51:00,
2013-03-16 14:54:00,30.7,18.8,30.01,WNW,285,3.7,6.9,61,0.00,CLR,,0.00,WeatherDisplay:10.37,2013-03-16 19:54:00,
2013-03-16 14:55:00,30.6,18.7,30.01,West,275,3.8,5.8,61,0.00,CLR,,0.00,WeatherDisplay:10.37,2013-03-16 19:55:00,
2013-03-16 14:56:00,30.6,18.7,30.01,NNW,343,3.6,4.6,61,0.00,CLR,,0.00,WeatherDisplay:10.37,2013-03-16 19:56:00,
2013-03-16 14:59:00,30.4,18.5,30.01,NNW,330,3.7,5.8,61,0.00,CLR,,0.00,WeatherDisplay:10.37,2013-03-16 19:59:00,
2013-03-16 15:00:00,30.4,18.5,30.01,WNW,298,4.4,5.8,61,0.00,CLR,,0.00,WeatherDisplay:10.37,2013-03-16 20:00:00,
2013-03-16 15:01:00,30.3,18.5,30.01,West,260,3.4,6.9,61,0.00,CLR,,0.00,WeatherDisplay:10.37,2013-03-16 20:01:00,
2013-03-16 15:04:00,30.1,18.6,30.01,WSW,257,2.2,3.5,62,0.00,CLR,,0.00,WeatherDisplay:10.37,2013-03-16 20:04:00,
2013-03-16 15:05:00,30.2,18.7,30.01,WNW,289,3.0,4.7,62,0.00,CLR,,0.00,WeatherDisplay:10.37,2013-03-16 20:05:00,
2013-03-16 15:06:00,30.1,18.6,30.01,NW,313,3.8,5.8,62,0.00,CLR,,0.00,WeatherDisplay:10.37,2013-03-16 20:06:00,
2013-03-16 15:09:00,30.2,18.7,30.01,North,8,3.3,4.6,62,0.00,CLR,,0.00,WeatherDisplay:10.37,2013-03-16 20:09:00,
2013-03-16 15:10:00,30.2,18.7,30.00,NW,322,1.3,3.5,62,0.00,CLR,,0.00,WeatherDisplay:10.37,2013-03-16 20:10:00,
2013-03-16 15:11:00,30.2,18.7,30.00,West,271,0.5,2.3,62,0.00,CLR,,0.00,WeatherDisplay:10.37,2013-03-16 20:11:00,
2013-03-16 15:14:00,30.0,18.5,30.00,WNW,284,2.2,4.6,62,0.00,CLR,,0.00,WeatherDisplay:10.37,2013-03-16 20:14:00,
2013-03-16 15:15:00,30.1,18.6,30.00,NW,319,1.4,4.6,62,0.00,CLR,,0.00,WeatherDisplay:10.37,2013-03-16 20:15:00,
2013-03-16 15:16:00,30.1,18.6,30.00,North,353,3.4,4.2,62,0.00,CLR,,0.00,WeatherDisplay:10.37,2013-03-16 20:16:00,
2013-03-16 15:19:00,30.0,18.5,30.00,North,360,2.3,7.9,62,0.00,CLR,,0.00,WeatherDisplay:10.37,2013-03-16 20:19:00,
2013-03-16 15:20:00,29.9,18.5,30.00,North,0,5.4,5.8,62,0.00,CLR,,0.00,WeatherDisplay:10.37,2013-03-16 20:20:00,
2013-03-16 15:21:00,29.9,18.5,30.00,NNW,333,2.5,9.2,62,0.00,CLR,,0.00,WeatherDisplay:10.37,2013-03-16 20:21:00,
2013-03-16 15:22:00,29.8,18.4,30.00,NNW,346,4.9,6.9,62,0.00,CLR,,0.00,WeatherDisplay:10.37,2013-03-16 20:22:00,
2013-03-16 15:24:00,29.8,18.4,30.00,NNE,25,3.4,5.8,62,0.00,CLR,,0.00,WeatherDisplay:10.37,2013-03-16 20:24:00,
2013-03-16 15:25:00,29.8,18.4,30.00,North,1,2.5,4.7,62,0.00,CLR,,0.00,WeatherDisplay:10.37,2013-03-16 20:25:00,
2013-03-16 15:26:00,29.7,18.3,30.00,NNE,14,1.8,4.6,62,0.00,CLR,,0.00,WeatherDisplay:10.37,2013-03-16 20:26:00,
2013-03-16 15:27:00,29.7,18.3,30.00,NW,319,2.5,4.6,62,0.00,CLR,,0.00,WeatherDisplay:10.37,2013-03-16 20:27:00,
2013-03-16 15:29:00,29.7,18.3,30.00,NNW,337,0.7,2.4,62,0.00,CLR,,0.00,WeatherDisplay:10.37,2013-03-16 20:29:00,
2013-03-16 15:30:00,29.8,18.4,30.00,NW,313,2.1,4.6,62,0.00,CLR,,0.00,WeatherDisplay:10.37,2013-03-16 20:30:00,
2013-03-16 15:31:00,29.9,18.5,30.00,NNE,23,2.8,4.6,62,0.00,CLR,,0.00,WeatherDisplay:10.37,2013-03-16 20:31:00,
2013-03-16 15:32:00,30.0,18.5,30.00,NW,309,2.3,4.6,62,0.00,CLR,,0.00,WeatherDisplay:10.37,2013-03-16 20:32:00,
2013-03-16 15:34:00,30.0,18.5,30.00,NW,318,4.8,6.9,62,0.00,CLR,,0.00,WeatherDisplay:10.37,2013-03-16 20:34:00,
2013-03-16 15:35:00,30.0,18.5,30.00,West,274,2.3,6.9,62,0.00,CLR,,0.00,WeatherDisplay:10.37,2013-03-16 20:35:00,
2013-03-16 15:36:00,29.9,18.5,30.00,NW,318,4.3,6.4,62,0.00,CLR,,0.00,WeatherDisplay:10.37,2013-03-16 20:36:00,
2013-03-16 15:37:00,29.9,18.5,30.00,West,267,3.0,6.9,62,0.00,CLR,,0.00,WeatherDisplay:10.37,2013-03-16 20:37:00,
2013-03-16 15:40:00,29.9,18.5,30.00,WNW,289,3.9,4.6,62,0.00,CLR,,0.00,WeatherDisplay:10.37,2013-03-16 20:40:00,
2013-03-16 15:42:00,29.9,18.5,30.01,WNW,302,3.2,4.6,62,0.00,CLR,,0.00,WeatherDisplay:10.37,2013-03-16 20:42:00,
2013-03-16 15:45:00,30.0,18.5,30.00,SW,222,3.3,5.2,62,0.00,CLR,,0.00,WeatherDisplay:10.37,2013-03-16 20:45:00,
2013-03-16 15:46:00,29.8,18.0,30.00,WSW,258,5.0,5.8,61,0.00,CLR,,0.00,WeatherDisplay:10.37,2013-03-16 20:46:00,
2013-03-16 15:47:00,29.9,18.1,30.00,NW,323,3.3,6.9,61,0.00,CLR,,0.00,WeatherDisplay:10.37,2013-03-16 20:47:00,
2013-03-16 15:50:00,29.9,18.5,30.00,North,0,3.2,4.6,62,0.00,CLR,,0.00,WeatherDisplay:10.37,2013-03-16 20:50:00,
2013-03-16 15:51:00,29.8,18.4,30.00,NW,325,2.4,6.7,62,0.00,CLR,,0.00,WeatherDisplay:10.37,2013-03-16 20:51:00,
2013-03-16 15:52:00,29.8,18.0,30.01,West,270,3.8,6.9,61,0.00,CLR,,0.00,WeatherDisplay:10.37,2013-03-16 20:52:00,
2013-03-16 15:53:00,29.9,18.1,30.01,NNW,347,3.0,6.9,61,0.00,CLR,,0.00,WeatherDisplay:10.37,2013-03-16 20:53:00,
2013-03-16 15:55:00,29.8,18.0,30.01,North,359,4.8,8.1,61,0.00,CLR,,0.00,WeatherDisplay:10.37,2013-03-16 20:55:00,
2013-03-16 15:56:00,29.9,18.1,30.01,NNW,347,3.0,8.1,61,0.00,CLR,,0.00,WeatherDisplay:10.37,2013-03-16 20:56:00,
2013-03-16 15:57:00,29.9,18.1,30.01,NW,311,4.1,6.9,61,0.00,CLR,,0.00,WeatherDisplay:10.37,2013-03-16 20:57:00,
2013-03-16 15:58:00,29.8,18.0,30.01,NW,319,4.4,6.9,61,0.00,CLR,,0.00,WeatherDisplay:10.37,2013-03-16 20:58:00,
2013-03-16 16:00:00,29.8,17.6,30.01,NNW,333,5.9,8.1,60,0.00,CLR,,0.00,WeatherDisplay:10.37,2013-03-16 21:00:00,
2013-03-16 16:01:00,29.8,17.6,30.01,NW,308,6.0,8.1,60,0.00,CLR,,0.00,WeatherDisplay:10.37,2013-03-16 21:01:00,
2013-03-16 16:02:00,29.8,17.6,30.00,NNW,332,4.2,6.9,60,0.00,CLR,,0.00,WeatherDisplay:10.37,2013-03-16 21:02:00,
2013-03-16 16:03:00,29.7,17.5,30.00,North,360,4.0,6.9,60,0.00,CLR,,0.00,WeatherDisplay:10.37,2013-03-16 21:03:00,
2013-03-16 16:05:00,29.7,17.5,30.01,North,350,1.7,4.6,60,0.00,CLR,,0.00,WeatherDisplay:10.37,2013-03-16 21:05:00,
2013-03-16 16:08:00,29.8,18.0,30.01,NNW,347,4.5,5.8,61,0.00,CLR,,0.00,WeatherDisplay:10.37,2013-03-16 21:08:00,
2013-03-16 16:10:00,29.6,17.4,30.01,NW,322,4.2,5.8,60,0.00,CLR,,0.00,WeatherDisplay:10.37,2013-03-16 21:10:00,
2013-03-16 16:13:00,29.7,17.5,30.00,NNE,18,3.2,6.9,60,0.00,CLR,,0.00,WeatherDisplay:10.37,2013-03-16 21:13:00,
2013-03-16 16:15:00,29.7,17.5,30.00,NW,326,3.1,5.8,60,0.00,CLR,,0.00,WeatherDisplay:10.37,2013-03-16 21:15:00,
2013-03-16 16:18:00,29.6,17.4,30.00,North,353,1.7,6.9,60,0.00,CLR,,0.00,WeatherDisplay:10.37,2013-03-16 21:18:00,
2013-03-16 16:19:00,29.7,17.9,30.00,WNW,295,2.3,6.9,61,0.00,CLR,,0.00,WeatherDisplay:10.37,2013-03-16 21:19:00,
2013-03-16 16:21:00,29.7,17.9,30.00,NNW,347,4.1,5.4,61,0.00,CLR,,0.00,WeatherDisplay:10.37,2013-03-16 21:21:00,
2013-03-16 16:23:00,29.8,18.0,30.00,NW,313,1.9,5.3,61,0.00,CLR,,0.00,WeatherDisplay:10.37,2013-03-16 21:23:00,
2013-03-16 16:24:00,29.8,18.0,30.00,WNW,288,3.0,5.8,61,0.00,CLR,,0.00,WeatherDisplay:10.37,2013-03-16 21:24:00,
2013-03-16 16:26:00,29.8,18.0,30.00,NNE,25,1.1,6.9,61,0.00,CLR,,0.00,WeatherDisplay:10.37,2013-03-16 21:26:00,
2013-03-16 16:28:00,29.9,18.1,30.00,NW,306,3.9,8.1,61,0.00,CLR,,0.00,WeatherDisplay:10.37,2013-03-16 21:28:00,
2013-03-16 16:29:00,29.9,18.1,30.00,NNW,328,3.5,8.1,61,0.00,CLR,,0.00,WeatherDisplay:10.37,2013-03-16 21:29:00,
2013-03-16 16:31:00,29.9,17.7,30.00,North,360,2.3,8.1,60,0.00,CLR,,0.00,WeatherDisplay:10.37,2013-03-16 21:31:00,
2013-03-16 16:33:00,29.9,17.7,30.00,West,281,4.2,10.4,60,0.00,CLR,,0.00,WeatherDisplay:10.37,2013-03-16 21:33:00,
2013-03-16 16:34:00,29.9,17.7,30.00,WNW,289,3.6,7.4,60,0.00,CLR,,0.00,WeatherDisplay:10.37,2013-03-16 21:34:00,
2013-03-16 16:36:00,29.9,17.7,30.00,NNW,328,4.9,8.1,60,0.00,CLR,,0.00,WeatherDisplay:10.37,2013-03-16 21:36:00,
2013-03-16 16:38:00,29.8,17.6,30.00,North,360,4.0,8.1,60,0.00,CLR,,0.00,WeatherDisplay:10.37,2013-03-16 21:38:00,
2013-03-16 16:39:00,29.9,17.7,30.00,NW,318,4.2,6.9,60,0.00,CLR,,0.00,WeatherDisplay:10.37,2013-03-16 21:39:00,
2013-03-16 16:42:00,30.0,17.8,30.00,WNW,289,3.2,6.9,60,0.00,CLR,,0.00,WeatherDisplay:10.37,2013-03-16 21:42:00,
2013-03-16 16:44:00,30.1,17.9,30.00,NW,316,2.8,6.9,60,0.00,CLR,,0.00,WeatherDisplay:10.37,2013-03-16 21:44:00,
2013-03-16 16:45:00,30.2,18.0,30.00,WNW,295,2.9,4.6,60,0.00,CLR,,0.00,WeatherDisplay:10.37,2013-03-16 21:45:00,
2013-03-16 16:47:00,30.5,18.3,30.00,NNW,342,1.5,5.0,60,0.00,CLR,,0.00,WeatherDisplay:10.37,2013-03-16 21:47:00,
2013-03-16 16:49:00,30.7,18.4,30.00,NW,320,4.4,5.8,60,0.00,CLR,,0.00,WeatherDisplay:10.37,2013-03-16 21:49:00,
2013-03-16 16:50:00,30.8,18.1,30.00,NW,306,4.5,7.3,59,0.00,CLR,,0.00,WeatherDisplay:10.37,2013-03-16 21:50:00,
2013-03-16 16:53:00,31.2,18.1,30.00,West,272,4.9,8.1,58,0.00,CLR,,0.00,WeatherDisplay:10.37,2013-03-16 21:53:00,
2013-03-16 16:54:00,31.3,18.2,30.00,West,281,5.0,8.1,58,0.00,CLR,,0.00,WeatherDisplay:10.37,2013-03-16 21:54:00,
2013-03-16 16:55:00,31.2,17.7,30.00,NW,309,4.1,6.9,57,0.00,CLR,,0.00,WeatherDisplay:10.37,2013-03-16 21:55:00,
2013-03-16 16:58:00,31.3,18.2,30.00,NNW,329,4.0,4.6,58,0.00,CLR,,0.00,WeatherDisplay:10.37,2013-03-16 21:58:00,
2013-03-16 16:59:00,31.3,18.2,30.00,WNW,302,4.1,6.9,58,0.00,CLR,,0.00,WeatherDisplay:10.37,2013-03-16 21:59:00,
2013-03-16 17:00:00,31.2,18.1,30.00,NNW,346,3.4,5.8,58,0.00,CLR,,0.00,WeatherDisplay:10.37,2013-03-16 22:00:00,
2013-03-16 17:03:00,31.1,18.0,30.00,NW,312,2.8,5.0,58,0.00,CLR,,0.00,WeatherDisplay:10.37,2013-03-16 22:03:00,
2013-03-16 17:04:00,31.1,18.0,30.00,West,281,3.0,5.8,58,0.00,CLR,,0.00,WeatherDisplay:10.37,2013-03-16 22:04:00,
2013-03-16 17:05:00,31.0,17.9,30.00,West,280,3.9,4.6,58,0.00,CLR,,0.00,WeatherDisplay:10.37,2013-03-16 22:05:00,
2013-03-16 17:08:00,30.7,17.7,30.00,North,360,2.9,5.8,58,0.00,CLR,,0.00,WeatherDisplay:10.37,2013-03-16 22:08:00,
2013-03-16 17:09:00,30.8,18.1,30.00,NNW,328,3.6,5.8,59,0.00,CLR,,0.00,WeatherDisplay:10.37,2013-03-16 22:09:00,
2013-03-16 17:11:00,30.7,18.1,30.00,NW,322,2.9,5.8,59,0.00,CLR,,0.00,WeatherDisplay:10.37,2013-03-16 22:11:00,
2013-03-16 17:13:00,30.6,18.0,30.00,West,267,2.5,4.6,59,0.00,CLR,,0.00,WeatherDisplay:10.37,2013-03-16 22:13:00,
2013-03-16 17:14:00,30.5,17.9,30.00,NNW,340,2.2,3.5,59,0.00,CLR,,0.00,WeatherDisplay:10.37,2013-03-16 22:14:00,
2013-03-16 17:16:00,30.5,17.9,30.00,NNW,340,5.1,6.9,59,0.00,CLR,,0.00,WeatherDisplay:10.37,2013-03-16 22:16:00,
2013-03-16 17:18:00,30.4,17.8,30.00,NW,322,3.9,8.1,59,0.00,CLR,,0.00,WeatherDisplay:10.37,2013-03-16 22:18:00,
2013-03-16 17:19:00,30.4,17.8,30.00,NW,305,3.1,8.1,59,0.00,CLR,,0.00,WeatherDisplay:10.37,2013-03-16 22:19:00,
2013-03-16 17:20:00,30.4,17.8,30.00,WNW,292,2.9,8.1,59,0.00,CLR,,0.00,WeatherDisplay:10.37,2013-03-16 22:20:00,
2013-03-16 17:22:00,30.4,17.8,30.00,NNW,329,4.8,7.5,59,0.00,CLR,,0.00,WeatherDisplay:10.37,2013-03-16 22:22:00,
2013-03-16 17:23:00,30.2,17.2,30.00,NW,311,6.5,9.2,58,0.00,CLR,,0.00,WeatherDisplay:10.37,2013-03-16 22:23:00,
2013-03-16 17:24:00,30.2,17.2,30.00,West,272,4.2,8.1,58,0.00,CLR,,0.00,WeatherDisplay:10.37,2013-03-16 22:24:00,
2013-03-16 17:25:00,30.2,17.2,30.00,NW,316,4.2,8.1,58,0.00,CLR,,0.00,WeatherDisplay:10.37,2013-03-16 22:25:00,
2013-03-16 17:27:00,30.0,17.4,30.00,WNW,289,3.8,6.9,59,0.00,CLR,,0.00,WeatherDisplay:10.37,2013-03-16 22:27:00,
2013-03-16 17:28:00,30.0,17.4,30.00,WNW,302,3.1,7.4,59,0.00,CLR,,0.00,WeatherDisplay:10.37,2013-03-16 22:28:00,
2013-03-16 17:30:00,30.0,17.4,30.00,NW,312,5.3,8.1,59,0.00,CLR,,0.00,WeatherDisplay:10.37,2013-03-16 22:30:00,
2013-03-16 17:33:00,29.8,17.6,30.00,NNW,346,1.2,2.3,60,0.00,CLR,,0.00,WeatherDisplay:10.37,2013-03-16 22:33:00,
2013-03-16 17:35:00,29.7,17.5,30.00,NW,315,4.8,5.8,60,0.00,CLR,,0.00,WeatherDisplay:10.37,2013-03-16 22:35:00,
2013-03-16 17:38:00,29.8,17.6,30.00,WSW,241,1.9,3.5,60,0.00,CLR,,0.00,WeatherDisplay:10.37,2013-03-16 22:38:00,
2013-03-16 17:40:00,29.8,17.2,30.00,WNW,298,5.1,8.1,59,0.00,CLR,,0.00,WeatherDisplay:10.37,2013-03-16 22:40:00,
2013-03-16 17:43:00,29.9,17.7,30.00,NNW,337,4.7,6.9,60,0.00,CLR,,0.00,WeatherDisplay:10.37,2013-03-16 22:43:00,
2013-03-16 17:45:00,30.1,17.5,30.00,NNW,328,4.5,6.9,59,0.00,CLR,,0.00,WeatherDisplay:10.37,2013-03-16 22:45:00,
2013-03-16 17:46:00,30.1,17.5,30.00,NW,308,3.4,6.9,59,0.00,CLR,,0.00,WeatherDisplay:10.37,2013-03-16 22:46:00,
2013-03-16 17:48:00,30.2,17.6,30.00,West,278,5.1,8.1,59,0.00,CLR,,0.00,WeatherDisplay:10.37,2013-03-16 22:48:00,
2013-03-16 17:50:00,30.2,17.6,30.00,NW,312,3.7,9.1,59,0.00,CLR,,0.00,WeatherDisplay:10.37,2013-03-16 22:50:00,
2013-03-16 17:51:00,30.2,17.6,30.00,NW,326,4.1,5.8,59,0.00,CLR,,0.00,WeatherDisplay:10.37,2013-03-16 22:51:00,
2013-03-16 17:53:00,30.1,17.5,30.00,WNW,302,3.8,6.9,59,0.00,CLR,,0.00,WeatherDisplay:10.37,2013-03-16 22:53:00,
2013-03-16 17:55:00,30.1,17.5,30.00,WNW,285,4.7,6.1,59,0.00,CLR,,0.00,WeatherDisplay:10.37,2013-03-16 22:55:00,
2013-03-16 17:56:00,29.9,17.3,30.00,NW,319,5.0,5.0,59,0.00,CLR,,0.00,WeatherDisplay:10.37,2013-03-16 22:56:00,
2013-03-16 17:58:00,29.9,17.3,30.01,WSW,256,2.2,3.5,59,0.00,CLR,,0.00,WeatherDisplay:10.37,2013-03-16 22:58:00,
2013-03-16 17:59:00,29.7,17.1,30.01,WNW,296,2.4,5.2,59,0.00,CLR,,0.00,WeatherDisplay:10.37,2013-03-16 22:59:00,
2013-03-16 18:00:00,29.7,17.1,30.00,West,280,4.7,6.9,59,0.00,CLR,,0.00,WeatherDisplay:10.37,2013-03-16 23:00:00,
2013-03-16 18:01:00,29.6,17.0,30.00,WNW,298,4.0,6.9,59,0.00,CLR,,0.00,WeatherDisplay:10.37,2013-03-16 23:01:00,
2013-03-16 18:03:00,29.4,17.2,30.01,WNW,295,5.9,9.2,60,0.00,CLR,,0.00,WeatherDisplay:10.37,2013-03-16 23:03:00,
2013-03-16 18:04:00,29.4,17.2,30.01,NW,312,5.1,6.9,60,0.00,CLR,,0.00,WeatherDisplay:10.37,2013-03-16 23:04:00,
2013-03-16 18:05:00,29.3,16.7,30.01,NNW,332,4.0,8.1,59,0.00,CLR,,0.00,WeatherDisplay:10.37,2013-03-16 23:05:00,
2013-03-16 18:06:00,29.3,17.1,30.01,WSW,258,2.7,8.1,60,0.00,CLR,,0.00,WeatherDisplay:10.37,2013-03-16 23:06:00,
2013-03-16 18:08:00,29.1,16.9,30.01,NNW,346,2.2,4.6,60,0.00,CLR,,0.00,WeatherDisplay:10.37,2013-03-16 23:08:00,
2013-03-16 18:09:00,29.0,16.8,30.01,WNW,299,3.5,4.9,60,0.00,CLR,,0.00,WeatherDisplay:10.37,2013-03-16 23:09:00,
2013-03-16 18:10:00,29.1,16.9,30.01,NNW,332,4.3,6.5,60,0.00,CLR,,0.00,WeatherDisplay:10.37,2013-03-16 23:10:00,
2013-03-16 18:11:00,29.0,16.8,30.01,West,281,4.3,5.8,60,0.00,CLR,,0.00,WeatherDisplay:10.37,2013-03-16 23:11:00,
2013-03-16 18:13:00,28.9,16.7,30.01,West,265,3.9,5.8,60,0.00,CLR,,0.00,WeatherDisplay:10.37,2013-03-16 23:13:00,
2013-03-16 18:14:00,28.9,16.7,30.01,NW,318,2.2,6.9,60,0.00,CLR,,0.00,WeatherDisplay:10.37,2013-03-16 23:14:00,
2013-03-16 18:15:00,28.9,16.7,30.01,WNW,287,3.4,4.6,60,0.00,CLR,,0.00,WeatherDisplay:10.37,2013-03-16 23:15:00,
2013-03-16 18:16:00,28.8,16.6,30.01,WNW,289,3.7,4.6,60,0.00,CLR,,0.00,WeatherDisplay:10.37,2013-03-16 23:16:00,
2013-03-16 18:18:00,28.7,16.6,30.01,NNW,346,3.1,6.9,60,0.00,CLR,,0.00,WeatherDisplay:10.37,2013-03-16 23:18:00,
2013-03-16 18:19:00,28.7,16.6,30.01,WNW,288,1.5,4.6,60,0.00,CLR,,0.00,WeatherDisplay:10.37,2013-03-16 23:19:00,
2013-03-16 18:20:00,28.6,16.5,30.01,WSW,251,3.2,4.8,60,0.00,CLR,,0.00,WeatherDisplay:10.37,2013-03-16 23:20:00,
2013-03-16 18:21:00,28.6,16.5,30.01,NW,322,3.7,5.8,60,0.00,CLR,,0.00,WeatherDisplay:10.37,2013-03-16 23:21:00,
2013-03-16 18:24:00,28.6,16.5,30.01,West,263,1.8,4.6,60,0.00,CLR,,0.00,WeatherDisplay:10.37,2013-03-16 23:24:00,
2013-03-16 18:25:00,28.6,16.5,30.01,WNW,301,2.9,3.5,60,0.00,CLR,,0.00,WeatherDisplay:10.37,2013-03-16 23:25:00,
2013-03-16 18:26:00,28.5,16.7,30.01,WNW,301,2.0,4.6,61,0.00,CLR,,0.00,WeatherDisplay:10.37,2013-03-16 23:26:00,
2013-03-16 18:29:00,28.5,16.7,30.01,WNW,282,3.8,3.9,61,0.00,CLR,,0.00,WeatherDisplay:10.37,2013-03-16 23:29:00,
2013-03-16 18:30:00,28.5,16.7,30.01,WNW,282,3.8,3.9,61,0.00,CLR,,0.00,WeatherDisplay:10.37,2013-03-16 23:30:00,
2013-03-16 18:31:00,28.4,16.7,30.01,WNW,291,2.7,4.6,61,0.00,CLR,,0.00,WeatherDisplay:10.37,2013-03-16 23:31:00,
2013-03-16 18:32:00,28.4,16.7,30.01,NNW,330,2.7,3.7,61,0.00,CLR,,0.00,WeatherDisplay:10.37,2013-03-16 23:32:00,
2013-03-16 18:35:00,28.3,16.6,30.01,NNW,342,4.1,6.9,61,0.00,CLR,,0.00,WeatherDisplay:10.37,2013-03-16 23:35:00,
2013-03-16 18:36:00,28.2,16.5,30.01,WNW,289,1.5,4.6,61,0.00,CLR,,0.00,WeatherDisplay:10.37,2013-03-16 23:36:00,
2013-03-16 18:37:00,28.2,16.5,30.01,WNW,301,3.0,3.5,61,0.00,CLR,,0.00,WeatherDisplay:10.37,2013-03-16 23:37:00,
2013-03-16 18:40:00,28.3,16.6,30.01,NW,305,2.4,4.6,61,0.00,CLR,,0.00,WeatherDisplay:10.37,2013-03-16 23:40:00,
2013-03-16 18:41:00,28.1,16.4,30.01,NW,318,3.1,5.3,61,0.00,CLR,,0.00,WeatherDisplay:10.37,2013-03-16 23:41:00,
2013-03-16 18:42:00,28.1,16.4,30.01,NW,313,2.9,5.8,61,0.00,CLR,,0.00,WeatherDisplay:10.37,2013-03-16 23:42:00,
2013-03-16 18:45:00,28.0,16.3,30.01,NW,322,3.7,5.8,61,0.00,CLR,,0.00,WeatherDisplay:10.37,2013-03-16 23:45:00,
2013-03-16 18:47:00,28.0,16.6,30.01,NW,304,1.7,4.9,62,0.00,CLR,,0.00,WeatherDisplay:10.37,2013-03-16 23:47:00,
2013-03-16 18:48:00,27.9,16.6,30.01,NNW,346,2.8,3.5,62,0.00,CLR,,0.00,WeatherDisplay:10.37,2013-03-16 23:48:00,
2013-03-16 18:50:00,27.9,16.6,30.02,NW,312,3.0,4.6,62,0.00,CLR,,0.00,WeatherDisplay:10.37,2013-03-16 23:50:00,
2013-03-16 18:52:00,27.8,16.5,30.01,NE,55,3.3,5.8,62,0.00,CLR,,0.00,WeatherDisplay:10.37,2013-03-16 23:52:00,
2013-03-16 18:53:00,27.8,16.5,30.01,North,352,2.4,5.8,62,0.00,CLR,,0.00,WeatherDisplay:10.37,2013-03-16 23:53:00,
2013-03-16 18:55:00,27.7,16.4,30.02,North,10,0.7,2.3,62,0.00,CLR,,0.00,WeatherDisplay:10.37,2013-03-16 23:55:00,
2013-03-16 18:57:00,27.7,16.4,30.02,West,268,0.3,4.6,62,0.00,CLR,,0.00,WeatherDisplay:10.37,2013-03-16 23:57:00,
2013-03-16 18:58:00,27.7,16.4,30.02,WNW,287,0.5,2.5,62,0.00,CLR,,0.00,WeatherDisplay:10.37,2013-03-16 23:58:00,
2013-03-16 19:00:00,27.5,16.2,30.01,NNE,27,1.1,2.3,62,0.00,CLR,,0.00,WeatherDisplay:10.37,2013-03-17 00:00:00,
2013-03-16 19:03:00,27.6,16.3,30.01,WNW,291,0.6,2.3,62,0.00,CLR,,0.00,WeatherDisplay:10.37,2013-03-17 00:03:00,
2013-03-16 19:05:00,27.5,16.2,30.02,WNW,282,0.2,3.6,62,0.00,CLR,,0.00,WeatherDisplay:10.37,2013-03-17 00:05:00,
2013-03-16 19:08:00,27.3,16.0,30.02,North,4,0.1,1.1,62,0.00,CLR,,0.00,WeatherDisplay:10.37,2013-03-17 00:08:00,
2013-03-16 19:10:00,27.3,16.4,30.02,NW,316,0.6,2.3,63,0.00,CLR,,0.00,WeatherDisplay:10.37,2013-03-17 00:10:00,
2013-03-16 19:13:00,27.2,16.3,30.02,NW,316,0.0,0.0,63,0.00,CLR,,0.00,WeatherDisplay:10.37,2013-03-17 00:13:00,
2013-03-16 19:15:00,27.2,15.9,30.02,NW,316,0.0,0.0,62,0.00,CLR,,0.00,WeatherDisplay:10.37,2013-03-17 00:15:00,
2013-03-16 19:18:00,27.1,16.2,30.02,NW,316,0.0,0.0,63,0.00,CLR,,0.00,WeatherDisplay:10.37,2013-03-17 00:18:00,
2013-03-16 19:20:00,27.1,16.2,30.02,NW,316,0.0,0.0,63,0.00,CLR,,0.00,WeatherDisplay:10.37,2013-03-17 00:20:00,
2013-03-16 19:23:00,27.1,16.2,30.02,NW,316,0.0,0.0,63,0.00,CLR,,0.00,WeatherDisplay:10.37,2013-03-17 00:23:00,
2013-03-16 19:25:00,27.0,16.1,30.02,NW,316,0.0,0.0,63,0.00,CLR,,0.00,WeatherDisplay:10.37,2013-03-17 00:25:00,
2013-03-16 19:28:00,27.1,16.5,30.02,NW,316,0.0,0.0,64,0.00,CLR,,0.00,WeatherDisplay:10.37,2013-03-17 00:28:00,
2013-03-16 19:30:00,27.0,16.4,30.02,NW,316,0.0,0.0,64,0.00,CLR,,0.00,WeatherDisplay:10.37,2013-03-17 00:30:00,
2013-03-16 19:33:00,26.9,16.3,30.02,NW,316,0.0,0.0,64,0.00,CLR,,0.00,WeatherDisplay:10.37,2013-03-17 00:33:00,
2013-03-16 19:34:00,26.9,16.3,30.02,NW,316,0.0,0.0,64,0.00,CLR,,0.00,WeatherDisplay:10.37,2013-03-17 00:34:00,
2013-03-16 19:35:00,26.9,16.3,30.02,NW,316,0.0,0.0,64,0.00,CLR,,0.00,WeatherDisplay:10.37,2013-03-17 00:35:00,
2013-03-16 19:36:00,26.9,16.3,30.02,NW,316,0.0,0.0,64,0.00,CLR,,0.00,WeatherDisplay:10.37,2013-03-17 00:36:00,
2013-03-16 19:38:00,26.9,16.3,30.03,NW,316,0.0,0.0,64,0.00,CLR,,0.00,WeatherDisplay:10.37,2013-03-17 00:38:00,
2013-03-16 19:39:00,26.8,16.2,30.03,NW,316,0.0,0.0,64,0.00,CLR,,0.00,WeatherDisplay:10.37,2013-03-17 00:39:00,
2013-03-16 19:40:00,26.9,16.7,30.03,NW,316,0.0,0.0,65,0.00,CLR,,0.00,WeatherDisplay:10.37,2013-03-17 00:40:00,
2013-03-16 19:42:00,26.8,16.6,30.03,NW,316,0.0,0.0,65,0.00,CLR,,0.00,WeatherDisplay:10.37,2013-03-17 00:42:00,
2013-03-16 19:43:00,26.9,16.7,30.03,NW,316,0.0,0.0,65,0.00,CLR,,0.00,WeatherDisplay:10.37,2013-03-17 00:43:00,
2013-03-16 19:44:00,26.8,16.6,30.03,NW,316,0.0,0.0,65,0.00,CLR,,0.00,WeatherDisplay:10.37,2013-03-17 00:44:00,
2013-03-16 19:45:00,26.8,16.6,30.03,NW,316,0.0,0.0,65,0.00,CLR,,0.00,WeatherDisplay:10.37,2013-03-17 00:45:00,
2013-03-16 19:47:00,26.8,16.6,30.03,NW,316,0.0,0.0,65,0.00,CLR,,0.00,WeatherDisplay:10.37,2013-03-17 00:47:00,
2013-03-16 19:49:00,26.8,16.6,30.03,NW,316,0.0,0.0,65,0.00,CLR,,0.00,WeatherDisplay:10.37,2013-03-17 00:49:00,
2013-03-16 19:50:00,26.8,16.6,30.03,NW,316,0.0,0.0,65,0.00,CLR,,0.00,WeatherDisplay:10.37,2013-03-17 00:50:00,
2013-03-16 19:53:00,26.7,16.5,30.03,NW,316,0.0,0.0,65,0.00,CLR,,0.00,WeatherDisplay:10.37,2013-03-17 00:53:00,
2013-03-16 19:54:00,26.8,16.6,30.03,NW,316,0.0,0.0,65,0.00,CLR,,0.00,WeatherDisplay:10.37,2013-03-17 00:54:00,
2013-03-16 19:56:00,26.7,16.5,30.03,West,264,1.3,3.5,65,0.00,CLR,,0.00,WeatherDisplay:10.37,2013-03-17 00:56:00,
2013-03-16 19:58:00,26.7,16.5,30.03,West,264,0.0,2.3,65,0.00,CLR,,0.00,WeatherDisplay:10.37,2013-03-17 00:58:00,
2013-03-16 19:59:00,26.7,16.5,30.03,West,264,0.0,0.0,65,0.00,CLR,,0.00,WeatherDisplay:10.37,2013-03-17 00:59:00,
2013-03-16 20:02:00,26.7,16.5,30.04,WNW,292,3.9,6.9,65,0.00,CLR,,0.00,WeatherDisplay:10.37,2013-03-17 01:02:00,
2013-03-16 20:03:00,26.7,16.5,30.04,West,274,4.4,6.9,65,0.00,CLR,,0.00,WeatherDisplay:10.37,2013-03-17 01:03:00,
2013-03-16 20:04:00,26.7,16.5,30.04,WSW,257,1.7,3.5,65,0.00,CLR,,0.00,WeatherDisplay:10.37,2013-03-17 01:04:00,
2013-03-16 20:08:00,26.6,16.4,30.04,North,356,3.8,8.1,65,0.00,CLR,,0.00,WeatherDisplay:10.37,2013-03-17 01:08:00,
2013-03-16 20:09:00,26.6,16.4,30.05,North,356,0.2,4.6,65,0.00,CLR,,0.00,WeatherDisplay:10.37,2013-03-17 01:09:00,
2013-03-16 20:13:00,26.5,16.3,30.05,NNW,337,1.0,3.7,65,0.00,CLR,,0.00,WeatherDisplay:10.37,2013-03-17 01:13:00,
2013-03-16 20:14:00,26.5,16.3,30.05,NW,308,2.7,4.5,65,0.00,CLR,,0.00,WeatherDisplay:10.37,2013-03-17 01:14:00,
2013-03-16 20:15:00,26.5,16.3,30.05,West,267,2.5,4.6,65,0.00,CLR,,0.00,WeatherDisplay:10.37,2013-03-17 01:15:00,
2013-03-16 20:18:00,26.3,15.8,30.05,WNW,291,5.4,8.1,64,0.00,CLR,,0.00,WeatherDisplay:10.37,2013-03-17 01:18:00,
2013-03-16 20:19:00,26.3,15.8,30.05,WNW,299,2.9,5.8,64,0.00,CLR,,0.00,WeatherDisplay:10.37,2013-03-17 01:19:00,
2013-03-16 20:20:00,26.4,15.9,30.05,North,353,2.4,5.8,64,0.00,CLR,,0.00,WeatherDisplay:10.37,2013-03-17 01:20:00,
2013-03-16 20:24:00,26.3,15.8,30.05,North,359,2.0,3.5,64,0.00,CLR,,0.00,WeatherDisplay:10.37,2013-03-17 01:24:00,
2013-03-16 20:25:00,26.3,15.8,30.05,NNW,333,3.2,3.5,64,0.00,CLR,,0.00,WeatherDisplay:10.37,2013-03-17 01:25:00,
2013-03-16 20:29:00,26.2,15.7,30.06,West,275,0.3,2.3,64,0.00,CLR,,0.00,WeatherDisplay:10.37,2013-03-17 01:29:00,
2013-03-16 20:30:00,26.2,15.7,30.06,NW,315,1.0,4.2,64,0.00,CLR,,0.00,WeatherDisplay:10.37,2013-03-17 01:30:00,
2013-03-16 20:34:00,26.1,15.6,30.06,WNW,291,0.0,0.0,64,0.00,CLR,,0.00,WeatherDisplay:10.37,2013-03-17 01:34:00,
2013-03-16 20:35:00,26.1,15.9,30.06,West,278,1.4,3.5,65,0.00,CLR,,0.00,WeatherDisplay:10.37,2013-03-17 01:35:00,
2013-03-16 20:39:00,26.2,16.0,30.06,West,263,1.5,3.5,65,0.00,CLR,,0.00,WeatherDisplay:10.37,2013-03-17 01:39:00,
2013-03-16 20:40:00,26.2,16.0,30.06,WNW,298,0.5,5.2,65,0.00,CLR,,0.00,WeatherDisplay:10.37,2013-03-17 01:40:00,
2013-03-16 20:44:00,26.1,15.9,30.07,NW,305,2.5,5.8,65,0.00,CLR,,0.00,WeatherDisplay:10.37,2013-03-17 01:44:00,
2013-03-16 20:45:00,26.2,16.0,30.07,WNW,287,2.1,5.8,65,0.00,CLR,,0.00,WeatherDisplay:10.37,2013-03-17 01:45:00,
2013-03-16 20:49:00,26.1,15.9,30.07,WNW,287,3.4,5.8,65,0.00,CLR,,0.00,WeatherDisplay:10.37,2013-03-17 01:49:00,
2013-03-16 20:50:00,26.1,15.9,30.07,WNW,291,3.3,5.8,65,0.00,CLR,,0.00,WeatherDisplay:10.37,2013-03-17 01:50:00,
2013-03-16 20:54:00,26.0,15.5,30.06,NW,326,4.6,8.1,64,0.00,CLR,,0.00,WeatherDisplay:10.37,2013-03-17 01:54:00,
2013-03-16 20:55:00,26.0,15.5,30.06,West,272,4.4,8.1,64,0.00,CLR,,0.00,WeatherDisplay:10.37,2013-03-17 01:55:00,
2013-03-16 20:59:00,25.9,15.7,30.06,West,281,4.0,8.1,65,0.00,CLR,,0.00,WeatherDisplay:10.37,2013-03-17 01:59:00,
2013-03-16 21:00:00,26.0,15.8,30.06,West,275,3.4,8.1,65,0.00,CLR,,0.00,WeatherDisplay:10.37,2013-03-17 02:00:00,
2013-03-16 21:04:00,26.0,15.8,30.07,NW,325,3.6,5.8,65,0.00,CLR,,0.00,WeatherDisplay:10.37,2013-03-17 02:04:00,
2013-03-16 21:05:00,26.0,15.8,30.07,WNW,301,3.5,5.8,65,0.00,CLR,,0.00,WeatherDisplay:10.37,2013-03-17 02:05:00,
2013-03-16 21:06:00,25.9,15.7,30.07,NW,304,3.6,5.8,65,0.00,CLR,,0.00,WeatherDisplay:10.37,2013-03-17 02:06:00,
2013-03-16 21:09:00,26.0,15.8,30.07,NNW,330,1.5,4.6,65,0.00,CLR,,0.00,WeatherDisplay:10.37,2013-03-17 02:09:00,
2013-03-16 21:10:00,26.0,15.8,30.07,NW,316,1.3,5.8,65,0.00,CLR,,0.00,WeatherDisplay:10.37,2013-03-17 02:10:00,
2013-03-16 21:11:00,25.9,16.1,30.07,WNW,284,3.5,5.8,66,0.00,CLR,,0.00,WeatherDisplay:10.37,2013-03-17 02:11:00,
2013-03-16 21:14:00,25.9,16.1,30.07,NNW,339,3.0,5.0,66,0.00,CLR,,0.00,WeatherDisplay:10.37,2013-03-17 02:14:00,
2013-03-16 21:15:00,26.0,16.2,30.07,NW,305,3.2,5.8,66,0.00,CLR,,0.00,WeatherDisplay:10.37,2013-03-17 02:15:00,
2013-03-16 21:16:00,25.9,16.1,30.07,NNW,332,3.5,5.8,66,0.00,CLR,,0.00,WeatherDisplay:10.37,2013-03-17 02:16:00,
2013-03-16 21:19:00,25.9,16.1,30.07,NNW,336,2.2,4.6,66,0.00,CLR,,0.00,WeatherDisplay:10.37,2013-03-17 02:19:00,
2013-03-16 21:20:00,25.9,16.1,30.07,West,270,2.7,4.6,66,0.00,CLR,,0.00,WeatherDisplay:10.37,2013-03-17 02:20:00,
2013-03-16 21:21:00,25.9,16.1,30.07,NNW,335,6.7,10.6,66,0.00,CLR,,0.00,WeatherDisplay:10.37,2013-03-17 02:21:00,
2013-03-16 21:22:00,25.9,16.1,30.07,North,8,6.1,9.2,66,0.00,CLR,,0.00,WeatherDisplay:10.37,2013-03-17 02:22:00,
2013-03-16 21:24:00,25.8,16.0,30.07,NNW,332,4.6,8.1,66,0.00,CLR,,0.00,WeatherDisplay:10.37,2013-03-17 02:24:00,
2013-03-16 21:25:00,25.8,16.0,30.07,WNW,299,5.6,6.9,66,0.00,CLR,,0.00,WeatherDisplay:10.37,2013-03-17 02:25:00,
2013-03-16 21:26:00,25.7,15.9,30.07,WNW,302,3.9,9.2,66,0.00,CLR,,0.00,WeatherDisplay:10.37,2013-03-17 02:26:00,
2013-03-16 21:27:00,25.7,15.9,30.07,NW,326,4.0,9.2,66,0.00,CLR,,0.00,WeatherDisplay:10.37,2013-03-17 02:27:00,
2013-03-16 21:30:00,25.7,15.9,30.07,NW,318,4.7,6.9,66,0.00,CLR,,0.00,WeatherDisplay:10.37,2013-03-17 02:30:00,
2013-03-16 21:32:00,25.7,15.9,30.07,NW,320,4.2,4.2,66,0.00,CLR,,0.00,WeatherDisplay:10.37,2013-03-17 02:32:00,
2013-03-16 21:35:00,25.6,15.8,30.07,WNW,296,4.9,9.2,66,0.00,CLR,,0.00,WeatherDisplay:10.37,2013-03-17 02:35:00,
2013-03-16 21:37:00,25.6,15.8,30.07,NW,308,3.8,6.9,66,0.00,CLR,,0.00,WeatherDisplay:10.37,2013-03-17 02:37:00,
2013-03-16 21:40:00,25.5,15.4,30.07,NNW,340,5.2,9.2,65,0.00,CLR,,0.00,WeatherDisplay:10.37,2013-03-17 02:40:00,
2013-03-16 21:42:00,25.5,15.4,30.08,NW,308,3.6,6.9,65,0.00,CLR,,0.00,WeatherDisplay:10.37,2013-03-17 02:42:00,
2013-03-16 21:45:00,25.5,15.4,30.07,NW,312,1.1,4.6,65,0.00,CLR,,0.00,WeatherDisplay:10.37,2013-03-17 02:45:00,
2013-03-16 21:46:00,25.4,15.3,30.08,NNW,335,2.3,4.6,65,0.00,CLR,,0.00,WeatherDisplay:10.37,2013-03-17 02:46:00,
2013-03-16 21:47:00,25.3,15.2,30.08,WNW,296,2.6,6.9,65,0.00,CLR,,0.00,WeatherDisplay:10.37,2013-03-17 02:47:00,
2013-03-16 21:48:00,25.3,15.2,30.07,NW,304,3.0,5.8,65,0.00,CLR,,0.00,WeatherDisplay:10.37,2013-03-17 02:48:00,
2013-03-16 21:50:00,25.3,15.5,30.07,NE,54,1.2,3.5,66,0.00,CLR,,0.00,WeatherDisplay:10.37,2013-03-17 02:50:00,
2013-03-16 21:51:00,25.2,15.4,30.07,NNE,16,3.2,5.1,66,0.00,CLR,,0.00,WeatherDisplay:10.37,2013-03-17 02:51:00,
2013-03-16 21:52:00,25.2,15.4,30.08,NNW,336,3.1,7.0,66,0.00,CLR,,0.00,WeatherDisplay:10.37,2013-03-17 02:52:00,
2013-03-16 21:53:00,25.2,15.1,30.08,North,352,5.7,8.1,65,0.00,CLR,,0.00,WeatherDisplay:10.37,2013-03-17 02:53:00,
2013-03-16 21:55:00,25.1,15.0,30.08,NNW,337,5.4,9.2,65,0.00,CLR,,0.00,WeatherDisplay:10.37,2013-03-17 02:55:00,
2013-03-16 21:56:00,25.1,15.0,30.08,North,360,6.2,9.2,65,0.00,CLR,,0.00,WeatherDisplay:10.37,2013-03-17 02:56:00,
2013-03-16 21:57:00,25.0,14.9,30.08,NW,309,4.0,9.2,65,0.00,CLR,,0.00,WeatherDisplay:10.37,2013-03-17 02:57:00,
2013-03-16 21:58:00,24.9,14.8,30.08,WNW,288,4.5,6.9,65,0.00,CLR,,0.00,WeatherDisplay:10.37,2013-03-17 02:58:00,
2013-03-16 22:00:00,24.9,14.8,30.08,NW,323,3.9,5.8,65,0.00,CLR,,0.00,WeatherDisplay:10.37,2013-03-17 03:00:00,
2013-03-16 22:01:00,24.8,14.7,30.08,NNW,346,3.4,5.8,65,0.00,CLR,,0.00,WeatherDisplay:10.37,2013-03-17 03:01:00,
2013-03-16 22:02:00,24.8,14.7,30.08,WNW,288,3.8,6.9,65,0.00,CLR,,0.00,WeatherDisplay:10.37,2013-03-17 03:02:00,
2013-03-16 22:03:00,24.7,14.6,30.08,West,277,4.9,7.5,65,0.00,CLR,,0.00,WeatherDisplay:10.37,2013-03-17 03:03:00,
2013-03-16 22:05:00,24.7,14.9,30.08,WSW,253,3.8,5.8,66,0.00,CLR,,0.00,WeatherDisplay:10.37,2013-03-17 03:05:00,
2013-03-16 22:06:00,24.7,14.9,30.08,NNW,330,2.2,5.8,66,0.00,CLR,,0.00,WeatherDisplay:10.37,2013-03-17 03:06:00,
2013-03-16 22:07:00,24.5,14.8,30.08,NW,323,3.3,4.6,66,0.00,CLR,,0.00,WeatherDisplay:10.37,2013-03-17 03:07:00,
2013-03-16 22:08:00,24.6,14.9,30.08,North,350,2.9,5.8,66,0.00,CLR,,0.00,WeatherDisplay:10.37,2013-03-17 03:08:00,
2013-03-16 22:10:00,24.4,14.7,30.08,NW,312,3.4,5.8,66,0.00,CLR,,0.00,WeatherDisplay:10.37,2013-03-17 03:10:00,
2013-03-16 22:11:00,24.4,14.7,30.08,North,350,3.3,5.7,66,0.00,CLR,,0.00,WeatherDisplay:10.37,2013-03-17 03:11:00,
2013-03-16 22:13:00,24.4,14.7,30.08,NW,308,4.0,6.9,66,0.00,CLR,,0.00,WeatherDisplay:10.37,2013-03-17 03:13:00,
2013-03-16 22:16:00,24.2,14.5,30.08,WNW,295,1.8,5.8,66,0.00,CLR,,0.00,WeatherDisplay:10.37,2013-03-17 03:16:00,
2013-03-16 22:18:00,24.1,14.4,30.08,NNW,329,2.7,6.9,66,0.00,CLR,,0.00,WeatherDisplay:10.37,2013-03-17 03:18:00,
2013-03-16 22:21:00,24.0,14.3,30.08,NNW,346,0.1,4.6,66,0.00,CLR,,0.00,WeatherDisplay:10.37,2013-03-17 03:21:00,
2013-03-16 22:23:00,23.9,14.2,30.08,NNW,339,2.2,3.5,66,0.00,CLR,,0.00,WeatherDisplay:10.37,2013-03-17 03:23:00,
2013-03-16 22:24:00,24.0,14.3,30.08,North,359,0.4,2.3,66,0.00,CLR,,0.00,WeatherDisplay:10.37,2013-03-17 03:24:00,
2013-03-16 22:26:00,23.9,14.2,30.09,WNW,289,1.8,3.5,66,0.00,CLR,,0.00,WeatherDisplay:10.37,2013-03-17 03:26:00,
2013-03-16 22:28:00,23.9,14.2,30.09,WNW,295,0.8,4.6,66,0.00,CLR,,0.00,WeatherDisplay:10.37,2013-03-17 03:28:00,
2013-03-16 22:29:00,23.8,14.1,30.09,West,261,0.7,4.2,66,0.00,CLR,,0.00,WeatherDisplay:10.37,2013-03-17 03:29:00,
2013-03-16 22:32:00,23.7,14.0,30.08,WNW,291,2.7,4.6,66,0.00,CLR,,0.00,WeatherDisplay:10.37,2013-03-17 03:32:00,
2013-03-16 22:33:00,23.7,14.3,30.09,North,360,1.0,3.4,67,0.00,CLR,,0.00,WeatherDisplay:10.37,2013-03-17 03:33:00,
2013-03-16 22:34:00,23.6,14.2,30.09,NW,326,2.5,3.0,67,0.00,CLR,,0.00,WeatherDisplay:10.37,2013-03-17 03:34:00,
2013-03-16 22:37:00,23.5,14.1,30.09,West,278,2.9,6.9,67,0.00,CLR,,0.00,WeatherDisplay:10.37,2013-03-17 03:37:00,
2013-03-16 22:38:00,23.6,14.2,30.09,NNW,336,1.6,3.5,67,0.00,CLR,,0.00,WeatherDisplay:10.37,2013-03-17 03:38:00,
2013-03-16 22:39:00,23.5,14.1,30.09,NW,311,3.4,5.8,67,0.00,CLR,,0.00,WeatherDisplay:10.37,2013-03-17 03:39:00,
2013-03-16 22:42:00,23.5,14.1,30.09,NW,318,3.2,5.8,67,0.00,CLR,,0.00,WeatherDisplay:10.37,2013-03-17 03:42:00,
2013-03-16 22:43:00,23.4,14.0,30.09,NW,325,2.8,4.6,67,0.00,CLR,,0.00,WeatherDisplay:10.37,2013-03-17 03:43:00,
2013-03-16 22:44:00,23.4,14.0,30.09,NW,312,1.9,4.6,67,0.00,CLR,,0.00,WeatherDisplay:10.37,2013-03-17 03:44:00,
2013-03-16 22:47:00,23.3,14.0,30.09,North,359,1.6,4.6,67,0.00,CLR,,0.00,WeatherDisplay:10.37,2013-03-17 03:47:00,
2013-03-16 22:48:00,23.2,13.9,30.09,West,271,0.2,1.1,67,0.00,CLR,,0.00,WeatherDisplay:10.37,2013-03-17 03:48:00,
2013-03-16 22:49:00,23.3,14.0,30.09,WNW,298,1.1,3.5,67,0.00,CLR,,0.00,WeatherDisplay:10.37,2013-03-17 03:49:00,
2013-03-16 22:52:00,23.2,13.9,30.10,NW,323,0.3,4.8,67,0.00,CLR,,0.00,WeatherDisplay:10.37,2013-03-17 03:52:00,
2013-03-16 22:53:00,23.2,13.9,30.09,NNW,339,3.2,4.6,67,0.00,CLR,,0.00,WeatherDisplay:10.37,2013-03-17 03:53:00,
2013-03-16 22:54:00,23.1,13.8,30.10,West,271,2.7,4.6,67,0.00,CLR,,0.00,WeatherDisplay:10.37,2013-03-17 03:54:00,
2013-03-16 22:55:00,23.1,13.8,30.10,West,271,1.8,4.6,67,0.00,CLR,,0.00,WeatherDisplay:10.37,2013-03-17 03:55:00,
2013-03-16 22:57:00,23.0,13.7,30.10,NW,309,1.5,3.5,67,0.00,CLR,,0.00,WeatherDisplay:10.37,2013-03-17 03:57:00,
2013-03-16 22:58:00,23.1,14.1,30.10,NW,323,1.9,2.4,68,0.00,CLR,,0.00,WeatherDisplay:10.37,2013-03-17 03:58:00,
2013-03-16 22:59:00,23.0,14.0,30.10,NW,313,1.0,4.6,68,0.00,CLR,,0.00,WeatherDisplay:10.37,2013-03-17 03:59:00,
2013-03-16 23:00:00,23.0,14.0,30.10,NW,313,0.0,4.6,68,0.00,CLR,,0.00,WeatherDisplay:10.37,2013-03-17 04:00:00,
2013-03-16 23:05:00,22.9,13.9,30.10,NW,308,0.0,0.0,68,0.00,CLR,,0.00,WeatherDisplay:10.37,2013-03-17 04:05:00,
2013-03-16 23:10:00,22.8,13.8,30.10,NW,308,0.0,0.0,68,0.00,CLR,,0.00,WeatherDisplay:10.37,2013-03-17 04:10:00,
2013-03-16 23:11:00,22.8,13.8,30.10,NW,308,0.0,0.0,68,0.00,CLR,,0.00,WeatherDisplay:10.37,2013-03-17 04:11:00,
2013-03-16 23:15:00,22.8,13.8,30.10,WNW,302,2.4,4.6,68,0.00,CLR,,0.00,WeatherDisplay:10.37,2013-03-17 04:15:00,
2013-03-16 23:16:00,22.7,13.7,30.10,West,264,1.6,2.3,68,0.00,CLR,,0.00,WeatherDisplay:10.37,2013-03-17 04:16:00,
2013-03-16 23:20:00,22.7,14.1,30.10,West,264,0.0,0.0,69,0.00,CLR,,0.00,WeatherDisplay:10.37,2013-03-17 04:20:00,
2013-03-16 23:22:00,22.6,14.0,30.11,NNW,340,0.6,3.7,69,0.00,CLR,,0.00,WeatherDisplay:10.37,2013-03-17 04:22:00,
2013-03-16 23:25:00,22.6,14.0,30.11,WNW,302,0.0,1.1,69,0.00,CLR,,0.00,WeatherDisplay:10.37,2013-03-17 04:25:00,
2013-03-16 23:27:00,22.6,14.0,30.11,West,275,0.6,1.2,69,0.00,CLR,,0.00,WeatherDisplay:10.37,2013-03-17 04:27:00,
2013-03-16 23:30:00,22.4,13.8,30.11,WNW,299,2.2,2.2,69,0.00,CLR,,0.00,WeatherDisplay:10.37,2013-03-17 04:30:00,
2013-03-16 23:32:00,22.4,13.8,30.11,NW,326,1.3,3.5,69,0.00,CLR,,0.00,WeatherDisplay:10.37,2013-03-17 04:32:00,
2013-03-16 23:33:00,22.5,13.9,30.11,NW,313,1.0,2.3,69,0.00,CLR,,0.00,WeatherDisplay:10.37,2013-03-17 04:33:00,
2013-03-16 23:35:00,22.4,13.8,30.11,NW,313,0.0,0.0,69,0.00,CLR,,0.00,WeatherDisplay:10.37,2013-03-17 04:35:00,
2013-03-16 23:37:00,22.5,13.9,30.11,NW,318,0.8,2.7,69,0.00,CLR,,0.00,WeatherDisplay:10.37,2013-03-17 04:37:00,
2013-03-16 23:38:00,22.4,13.8,30.11,NW,313,1.6,3.5,69,0.00,CLR,,0.00,WeatherDisplay:10.37,2013-03-17 04:38:00,
2013-03-16 23:40:00,22.4,13.8,30.11,NW,312,1.8,3.5,69,0.00,CLR,,0.00,WeatherDisplay:10.37,2013-03-17 04:40:00,
2013-03-16 23:41:00,22.4,13.8,30.11,NNW,337,2.0,3.5,69,0.00,CLR,,0.00,WeatherDisplay:10.37,2013-03-17 04:41:00,
2013-03-16 23:42:00,22.3,13.7,30.11,NW,304,3.5,5.8,69,0.00,CLR,,0.00,WeatherDisplay:10.37,2013-03-17 04:42:00,
2013-03-16 23:43:00,22.3,13.7,30.11,NE,49,1.7,5.8,69,0.00,CLR,,0.00,WeatherDisplay:10.37,2013-03-17 04:43:00,
2013-03-16 23:46:00,22.2,13.6,30.11,NW,309,2.7,4.6,69,0.00,CLR,,0.00,WeatherDisplay:10.37,2013-03-17 04:46:00,
2013-03-16 23:48:00,22.3,13.7,30.11,NW,306,1.1,4.6,69,0.00,CLR,,0.00,WeatherDisplay:10.37,2013-03-17 04:48:00,
2013-03-16 23:51:00,22.3,13.7,30.11,WNW,301,3.1,5.8,69,0.00,CLR,,0.00,WeatherDisplay:10.37,2013-03-17 04:51:00,
2013-03-16 23:52:00,22.2,13.6,30.11,North,353,2.6,5.8,69,0.00,CLR,,0.00,WeatherDisplay:10.37,2013-03-17 04:52:00,
2013-03-16 23:53:00,22.2,13.6,30.12,West,272,0.3,2.3,69,0.00,CLR,,0.00,WeatherDisplay:10.37,2013-03-17 04:53:00,
2013-03-16 23:54:00,22.2,13.6,30.12,WNW,289,0.8,2.3,69,0.00,CLR,,0.00,WeatherDisplay:10.37,2013-03-17 04:54:00,
2013-03-16 23:57:00,22.1,13.5,30.12,NNW,336,2.1,4.6,69,0.00,CLR,,0.00,WeatherDisplay:10.37,2013-03-17 04:57:00,
2013-03-16 23:58:00,22.1,13.5,30.12,NNW,336,0.0,1.1,69,0.00,CLR,,0.00,WeatherDisplay:10.37,2013-03-17 04:58:00,
2013-03-16 23:59:00,22.1,13.5,30.12,NNW,336,0.0,1.1,69,0.00,CLR,,0.00,WeatherDisplay:10.37,2013-03-17 04:59:00,